<?xml version="1.0" encoding="UTF-8" standalone="no" ?>
<gpx xmlns="http://www.topografix.com/GPX/1/1" xmlns:xsi="http://www.w3.org/2001/XMLSchema-instance" xsi:schemaLocation="http://www.topografix.com/GPX/1/1 http://www.topografix.com/GPX/1/1/gpx.xsd" version="1.1" creator="VisuGPX - https://www.visugpx.com">
  <metadata>
    <name>Sommet de Lure depuis Saint-Etienne-les-Orgues</name>
    <desc><![CDATA[En handbike]]></desc>
  </metadata>
  <trk>
    <name><![CDATA[Montagne de Lure]]></name>
    <trkseg>
      <trkpt lat="44.04329" lon="5.78146">
        <ele>687</ele>
        <time>2011-07-09T08:51:56Z</time>
      </trkpt>
      <trkpt lat="44.04331" lon="5.78119">
        <ele>684.9</ele>
        <time>2011-07-09T08:52:06.998Z</time>
      </trkpt>
      <trkpt lat="44.04341" lon="5.78098">
        <ele>680.2</ele>
        <time>2011-07-09T08:52:27Z</time>
      </trkpt>
      <trkpt lat="44.04367" lon="5.78086">
        <ele>679.1</ele>
        <time>2011-07-09T08:52:47Z</time>
      </trkpt>
      <trkpt lat="44.04383" lon="5.78077">
        <ele>679.3</ele>
        <time>2011-07-09T08:52:56Z</time>
      </trkpt>
      <trkpt lat="44.04398" lon="5.78069">
        <ele>683.6</ele>
        <time>2011-07-09T08:53:06Z</time>
      </trkpt>
      <trkpt lat="44.04417" lon="5.78061">
        <ele>685.2</ele>
        <time>2011-07-09T08:53:17Z</time>
      </trkpt>
      <trkpt lat="44.04448" lon="5.78047">
        <ele>679.5</ele>
        <time>2011-07-09T08:53:36.998Z</time>
      </trkpt>
      <trkpt lat="44.0447" lon="5.78041">
        <ele>678</ele>
        <time>2011-07-09T08:53:51Z</time>
      </trkpt>
      <trkpt lat="44.04486" lon="5.7803">
        <ele>694.1</ele>
        <time>2011-07-09T08:54:01Z</time>
      </trkpt>
      <trkpt lat="44.04502" lon="5.78022">
        <ele>703</ele>
        <time>2011-07-09T08:54:11Z</time>
      </trkpt>
      <trkpt lat="44.04534" lon="5.78008">
        <ele>703.6</ele>
        <time>2011-07-09T08:54:31Z</time>
      </trkpt>
      <trkpt lat="44.04543" lon="5.77971">
        <ele>715.7</ele>
        <time>2011-07-09T08:55:11Z</time>
      </trkpt>
      <trkpt lat="44.04542" lon="5.77936">
        <ele>711.9</ele>
        <time>2011-07-09T08:55:16Z</time>
      </trkpt>
      <trkpt lat="44.04538" lon="5.77881">
        <ele>706.6</ele>
        <time>2011-07-09T08:55:22.001Z</time>
      </trkpt>
      <trkpt lat="44.04536" lon="5.77832">
        <ele>702.6</ele>
        <time>2011-07-09T08:55:27.001Z</time>
      </trkpt>
      <trkpt lat="44.04533" lon="5.77788">
        <ele>700.6</ele>
        <time>2011-07-09T08:55:32.001Z</time>
      </trkpt>
      <trkpt lat="44.04529" lon="5.77753">
        <ele>699</ele>
        <time>2011-07-09T08:55:36.998Z</time>
      </trkpt>
      <trkpt lat="44.04523" lon="5.77723">
        <ele>697.8</ele>
        <time>2011-07-09T08:55:41.995Z</time>
      </trkpt>
      <trkpt lat="44.04525" lon="5.77682">
        <ele>695.3</ele>
        <time>2011-07-09T08:55:51.997Z</time>
      </trkpt>
      <trkpt lat="44.04555" lon="5.7767">
        <ele>693.7</ele>
        <time>2011-07-09T08:56:17Z</time>
      </trkpt>
      <trkpt lat="44.04588" lon="5.77666">
        <ele>698.6</ele>
        <time>2011-07-09T08:56:46.998Z</time>
      </trkpt>
      <trkpt lat="44.04604" lon="5.77658">
        <ele>693</ele>
        <time>2011-07-09T08:57:01Z</time>
      </trkpt>
      <trkpt lat="44.0462" lon="5.7765">
        <ele>698</ele>
        <time>2011-07-09T08:57:11Z</time>
      </trkpt>
      <trkpt lat="44.04636" lon="5.77643">
        <ele>703.4</ele>
        <time>2011-07-09T08:57:22Z</time>
      </trkpt>
      <trkpt lat="44.04655" lon="5.77638">
        <ele>702.7</ele>
        <time>2011-07-09T08:57:37.001Z</time>
      </trkpt>
      <trkpt lat="44.0469" lon="5.77637">
        <ele>702.4</ele>
        <time>2011-07-09T08:58:06.995Z</time>
      </trkpt>
      <trkpt lat="44.04706" lon="5.77644">
        <ele>702.8</ele>
        <time>2011-07-09T08:58:21.997Z</time>
      </trkpt>
      <trkpt lat="44.0473" lon="5.77658">
        <ele>707.3</ele>
        <time>2011-07-09T08:58:42Z</time>
      </trkpt>
      <trkpt lat="44.04751" lon="5.77677">
        <ele>712.3</ele>
        <time>2011-07-09T08:59:02Z</time>
      </trkpt>
      <trkpt lat="44.04774" lon="5.77699">
        <ele>715.2</ele>
        <time>2011-07-09T08:59:22Z</time>
      </trkpt>
      <trkpt lat="44.04798" lon="5.77723">
        <ele>717.4</ele>
        <time>2011-07-09T08:59:42.001Z</time>
      </trkpt>
      <trkpt lat="44.04812" lon="5.77735">
        <ele>716</ele>
        <time>2011-07-09T08:59:52Z</time>
      </trkpt>
      <trkpt lat="44.04833" lon="5.77756">
        <ele>716.2</ele>
        <time>2011-07-09T09:00:11Z</time>
      </trkpt>
      <trkpt lat="44.0485" lon="5.77767">
        <ele>721.5</ele>
        <time>2011-07-09T09:00:21.998Z</time>
      </trkpt>
      <trkpt lat="44.04864" lon="5.7778">
        <ele>725.8</ele>
        <time>2011-07-09T09:00:32.001Z</time>
      </trkpt>
      <trkpt lat="44.04875" lon="5.77795">
        <ele>728.8</ele>
        <time>2011-07-09T09:00:41.995Z</time>
      </trkpt>
      <trkpt lat="44.04884" lon="5.77813">
        <ele>729.7</ele>
        <time>2011-07-09T09:00:52.001Z</time>
      </trkpt>
      <trkpt lat="44.04889" lon="5.77835">
        <ele>731.7</ele>
        <time>2011-07-09T09:01:01.998Z</time>
      </trkpt>
      <trkpt lat="44.04894" lon="5.7786">
        <ele>732.4</ele>
        <time>2011-07-09T09:01:11.998Z</time>
      </trkpt>
      <trkpt lat="44.04894" lon="5.7791">
        <ele>723.1</ele>
        <time>2011-07-09T09:01:31.997Z</time>
      </trkpt>
      <trkpt lat="44.04891" lon="5.77962">
        <ele>716.6</ele>
        <time>2011-07-09T09:01:51.998Z</time>
      </trkpt>
      <trkpt lat="44.04889" lon="5.77991">
        <ele>721.2</ele>
        <time>2011-07-09T09:02:02.001Z</time>
      </trkpt>
      <trkpt lat="44.04886" lon="5.78022">
        <ele>726</ele>
        <time>2011-07-09T09:02:12.001Z</time>
      </trkpt>
      <trkpt lat="44.04882" lon="5.78054">
        <ele>726.9</ele>
        <time>2011-07-09T09:02:22.001Z</time>
      </trkpt>
      <trkpt lat="44.0488" lon="5.78088">
        <ele>730.3</ele>
        <time>2011-07-09T09:02:32.004Z</time>
      </trkpt>
      <trkpt lat="44.04875" lon="5.78121">
        <ele>728.6</ele>
        <time>2011-07-09T09:02:41.997Z</time>
      </trkpt>
      <trkpt lat="44.04875" lon="5.78158">
        <ele>725.1</ele>
        <time>2011-07-09T09:02:51.998Z</time>
      </trkpt>
      <trkpt lat="44.04896" lon="5.7818">
        <ele>723.8</ele>
        <time>2011-07-09T09:03:11.993Z</time>
      </trkpt>
      <trkpt lat="44.04911" lon="5.78188">
        <ele>724.4</ele>
        <time>2011-07-09T09:03:22.001Z</time>
      </trkpt>
      <trkpt lat="44.04927" lon="5.78196">
        <ele>723.7</ele>
        <time>2011-07-09T09:03:31.998Z</time>
      </trkpt>
      <trkpt lat="44.04958" lon="5.78208">
        <ele>735.4</ele>
        <time>2011-07-09T09:03:56.997Z</time>
      </trkpt>
      <trkpt lat="44.04979" lon="5.78213">
        <ele>737.8</ele>
        <time>2011-07-09T09:04:11.998Z</time>
      </trkpt>
      <trkpt lat="44.04999" lon="5.78213">
        <ele>739.6</ele>
        <time>2011-07-09T09:04:27Z</time>
      </trkpt>
      <trkpt lat="44.05022" lon="5.78194">
        <ele>735.6</ele>
        <time>2011-07-09T09:04:47.004Z</time>
      </trkpt>
      <trkpt lat="44.05033" lon="5.78157">
        <ele>736.6</ele>
        <time>2011-07-09T09:05:06Z</time>
      </trkpt>
      <trkpt lat="44.05038" lon="5.78114">
        <ele>745.9</ele>
        <time>2011-07-09T09:05:27.001Z</time>
      </trkpt>
      <trkpt lat="44.05038" lon="5.78086">
        <ele>748.6</ele>
        <time>2011-07-09T09:05:42.001Z</time>
      </trkpt>
      <trkpt lat="44.05043" lon="5.78039">
        <ele>751.5</ele>
        <time>2011-07-09T09:06:06.998Z</time>
      </trkpt>
      <trkpt lat="44.05051" lon="5.77989">
        <ele>746.7</ele>
        <time>2011-07-09T09:06:31Z</time>
      </trkpt>
      <trkpt lat="44.05059" lon="5.77934">
        <ele>751.8</ele>
        <time>2011-07-09T09:06:57.001Z</time>
      </trkpt>
      <trkpt lat="44.05074" lon="5.77899">
        <ele>753.8</ele>
        <time>2011-07-09T09:07:17Z</time>
      </trkpt>
      <trkpt lat="44.05099" lon="5.7792">
        <ele>763.6</ele>
        <time>2011-07-09T09:07:37Z</time>
      </trkpt>
      <trkpt lat="44.05115" lon="5.7795">
        <ele>770.5</ele>
        <time>2011-07-09T09:10:37.001Z</time>
      </trkpt>
      <trkpt lat="44.05149" lon="5.77962">
        <ele>789.2</ele>
        <time>2011-07-09T09:12:56Z</time>
      </trkpt>
      <trkpt lat="44.05158" lon="5.77977">
        <ele>786.3</ele>
        <time>2011-07-09T09:13:07.001Z</time>
      </trkpt>
      <trkpt lat="44.05172" lon="5.77988">
        <ele>789.5</ele>
        <time>2011-07-09T09:13:21Z</time>
      </trkpt>
      <trkpt lat="44.05189" lon="5.78001">
        <ele>788.7</ele>
        <time>2011-07-09T09:13:36.998Z</time>
      </trkpt>
      <trkpt lat="44.05211" lon="5.78019">
        <ele>780.8</ele>
        <time>2011-07-09T09:13:57.001Z</time>
      </trkpt>
      <trkpt lat="44.05234" lon="5.78041">
        <ele>772.1</ele>
        <time>2011-07-09T09:14:17.001Z</time>
      </trkpt>
      <trkpt lat="44.05255" lon="5.7804">
        <ele>783.8</ele>
        <time>2011-07-09T09:14:31.998Z</time>
      </trkpt>
      <trkpt lat="44.0527" lon="5.7805">
        <ele>790.1</ele>
        <time>2011-07-09T09:14:46Z</time>
      </trkpt>
      <trkpt lat="44.05293" lon="5.78072">
        <ele>785.6</ele>
        <time>2011-07-09T09:15:06.998Z</time>
      </trkpt>
      <trkpt lat="44.05307" lon="5.78103">
        <ele>784</ele>
        <time>2011-07-09T09:15:26Z</time>
      </trkpt>
      <trkpt lat="44.05325" lon="5.78129">
        <ele>784.6</ele>
        <time>2011-07-09T09:15:46Z</time>
      </trkpt>
      <trkpt lat="44.05345" lon="5.78156">
        <ele>797.3</ele>
        <time>2011-07-09T09:16:11Z</time>
      </trkpt>
      <trkpt lat="44.05361" lon="5.78173">
        <ele>808.5</ele>
        <time>2011-07-09T09:16:26Z</time>
      </trkpt>
      <trkpt lat="44.05373" lon="5.78191">
        <ele>800.6</ele>
        <time>2011-07-09T09:16:36.001Z</time>
      </trkpt>
      <trkpt lat="44.05399" lon="5.78211">
        <ele>812.8</ele>
        <time>2011-07-09T09:17:01Z</time>
      </trkpt>
      <trkpt lat="44.05423" lon="5.7823">
        <ele>814.7</ele>
        <time>2011-07-09T09:17:21Z</time>
      </trkpt>
      <trkpt lat="44.05438" lon="5.78242">
        <ele>809.7</ele>
        <time>2011-07-09T09:17:32.001Z</time>
      </trkpt>
      <trkpt lat="44.05452" lon="5.78255">
        <ele>808.4</ele>
        <time>2011-07-09T09:17:41.998Z</time>
      </trkpt>
      <trkpt lat="44.0547" lon="5.78263">
        <ele>807.3</ele>
        <time>2011-07-09T09:17:56Z</time>
      </trkpt>
      <trkpt lat="44.055" lon="5.78269">
        <ele>810.6</ele>
        <time>2011-07-09T09:18:17.001Z</time>
      </trkpt>
      <trkpt lat="44.05529" lon="5.78283">
        <ele>799.2</ele>
        <time>2011-07-09T09:18:37Z</time>
      </trkpt>
      <trkpt lat="44.05553" lon="5.78304">
        <ele>801.7</ele>
        <time>2011-07-09T09:18:56.998Z</time>
      </trkpt>
      <trkpt lat="44.05562" lon="5.78343">
        <ele>794</ele>
        <time>2011-07-09T09:19:16.998Z</time>
      </trkpt>
      <trkpt lat="44.05557" lon="5.78387">
        <ele>807.7</ele>
        <time>2011-07-09T09:19:41Z</time>
      </trkpt>
      <trkpt lat="44.05549" lon="5.78425">
        <ele>814.2</ele>
        <time>2011-07-09T09:20:02.001Z</time>
      </trkpt>
      <trkpt lat="44.05554" lon="5.78466">
        <ele>818.8</ele>
        <time>2011-07-09T09:20:22.001Z</time>
      </trkpt>
      <trkpt lat="44.05563" lon="5.78486">
        <ele>818.7</ele>
        <time>2011-07-09T09:20:36Z</time>
      </trkpt>
      <trkpt lat="44.05582" lon="5.78514">
        <ele>822.8</ele>
        <time>2011-07-09T09:20:56Z</time>
      </trkpt>
      <trkpt lat="44.05593" lon="5.78529">
        <ele>824.2</ele>
        <time>2011-07-09T09:21:06Z</time>
      </trkpt>
      <trkpt lat="44.0561" lon="5.78557">
        <ele>825.7</ele>
        <time>2011-07-09T09:21:26Z</time>
      </trkpt>
      <trkpt lat="44.05626" lon="5.78592">
        <ele>826.9</ele>
        <time>2011-07-09T09:21:46Z</time>
      </trkpt>
      <trkpt lat="44.05637" lon="5.7863">
        <ele>825.4</ele>
        <time>2011-07-09T09:22:06Z</time>
      </trkpt>
      <trkpt lat="44.05647" lon="5.78672">
        <ele>825.8</ele>
        <time>2011-07-09T09:22:27Z</time>
      </trkpt>
      <trkpt lat="44.05651" lon="5.78701">
        <ele>827.7</ele>
        <time>2011-07-09T09:22:41Z</time>
      </trkpt>
      <trkpt lat="44.05658" lon="5.78745">
        <ele>831.6</ele>
        <time>2011-07-09T09:23:02.001Z</time>
      </trkpt>
      <trkpt lat="44.05658" lon="5.7879">
        <ele>828.5</ele>
        <time>2011-07-09T09:23:21.997Z</time>
      </trkpt>
      <trkpt lat="44.05654" lon="5.78814">
        <ele>829.5</ele>
        <time>2011-07-09T09:23:32.001Z</time>
      </trkpt>
      <trkpt lat="44.05664" lon="5.78837">
        <ele>833.2</ele>
        <time>2011-07-09T09:23:46Z</time>
      </trkpt>
      <trkpt lat="44.05676" lon="5.78861">
        <ele>840</ele>
        <time>2011-07-09T09:24:01Z</time>
      </trkpt>
      <trkpt lat="44.05688" lon="5.78897">
        <ele>840.6</ele>
        <time>2011-07-09T09:24:21Z</time>
      </trkpt>
      <trkpt lat="44.05716" lon="5.78903">
        <ele>842.4</ele>
        <time>2011-07-09T09:24:46Z</time>
      </trkpt>
      <trkpt lat="44.05733" lon="5.78876">
        <ele>843.6</ele>
        <time>2011-07-09T09:25:06Z</time>
      </trkpt>
      <trkpt lat="44.0575" lon="5.78845">
        <ele>852</ele>
        <time>2011-07-09T09:25:26Z</time>
      </trkpt>
      <trkpt lat="44.05762" lon="5.78831">
        <ele>856.2</ele>
        <time>2011-07-09T09:25:36Z</time>
      </trkpt>
      <trkpt lat="44.05775" lon="5.7882">
        <ele>857.8</ele>
        <time>2011-07-09T09:25:46Z</time>
      </trkpt>
      <trkpt lat="44.05793" lon="5.78809">
        <ele>851.4</ele>
        <time>2011-07-09T09:26:01Z</time>
      </trkpt>
      <trkpt lat="44.0581" lon="5.78796">
        <ele>857.8</ele>
        <time>2011-07-09T09:26:16Z</time>
      </trkpt>
      <trkpt lat="44.05826" lon="5.78785">
        <ele>853.1</ele>
        <time>2011-07-09T09:26:26Z</time>
      </trkpt>
      <trkpt lat="44.05847" lon="5.78753">
        <ele>845.8</ele>
        <time>2011-07-09T09:26:51Z</time>
      </trkpt>
      <trkpt lat="44.05856" lon="5.7873">
        <ele>852.4</ele>
        <time>2011-07-09T09:27:02.002Z</time>
      </trkpt>
      <trkpt lat="44.05881" lon="5.78704">
        <ele>865</ele>
        <time>2011-07-09T09:27:21Z</time>
      </trkpt>
      <trkpt lat="44.05897" lon="5.78693">
        <ele>865.7</ele>
        <time>2011-07-09T09:27:31Z</time>
      </trkpt>
      <trkpt lat="44.05912" lon="5.78685">
        <ele>863.7</ele>
        <time>2011-07-09T09:27:41Z</time>
      </trkpt>
      <trkpt lat="44.05938" lon="5.78671">
        <ele>865.8</ele>
        <time>2011-07-09T09:28:01Z</time>
      </trkpt>
      <trkpt lat="44.05965" lon="5.78655">
        <ele>867.8</ele>
        <time>2011-07-09T09:28:21Z</time>
      </trkpt>
      <trkpt lat="44.05981" lon="5.78645">
        <ele>866.2</ele>
        <time>2011-07-09T09:28:31Z</time>
      </trkpt>
      <trkpt lat="44.06002" lon="5.78622">
        <ele>864.8</ele>
        <time>2011-07-09T09:28:51Z</time>
      </trkpt>
      <trkpt lat="44.06007" lon="5.78572">
        <ele>865.5</ele>
        <time>2011-07-09T09:29:16Z</time>
      </trkpt>
      <trkpt lat="44.06006" lon="5.78543">
        <ele>863.3</ele>
        <time>2011-07-09T09:29:31Z</time>
      </trkpt>
      <trkpt lat="44.06002" lon="5.78499">
        <ele>872.3</ele>
        <time>2011-07-09T09:29:51Z</time>
      </trkpt>
      <trkpt lat="44.05997" lon="5.7845">
        <ele>860.9</ele>
        <time>2011-07-09T09:30:16Z</time>
      </trkpt>
      <trkpt lat="44.05989" lon="5.78404">
        <ele>865</ele>
        <time>2011-07-09T09:30:37Z</time>
      </trkpt>
      <trkpt lat="44.06003" lon="5.7837">
        <ele>873.1</ele>
        <time>2011-07-09T09:30:57.001Z</time>
      </trkpt>
      <trkpt lat="44.06017" lon="5.7838">
        <ele>870.8</ele>
        <time>2011-07-09T09:31:07.001Z</time>
      </trkpt>
      <trkpt lat="44.06025" lon="5.784">
        <ele>867.2</ele>
        <time>2011-07-09T09:31:17.001Z</time>
      </trkpt>
      <trkpt lat="44.0603" lon="5.78425">
        <ele>870</ele>
        <time>2011-07-09T09:31:31Z</time>
      </trkpt>
      <trkpt lat="44.06056" lon="5.78442">
        <ele>886.8</ele>
        <time>2011-07-09T09:31:51Z</time>
      </trkpt>
      <trkpt lat="44.0608" lon="5.78465">
        <ele>893.7</ele>
        <time>2011-07-09T09:32:11Z</time>
      </trkpt>
      <trkpt lat="44.06094" lon="5.78482">
        <ele>892.7</ele>
        <time>2011-07-09T09:32:21Z</time>
      </trkpt>
      <trkpt lat="44.06107" lon="5.78499">
        <ele>891.4</ele>
        <time>2011-07-09T09:32:31Z</time>
      </trkpt>
      <trkpt lat="44.06118" lon="5.78516">
        <ele>892.5</ele>
        <time>2011-07-09T09:32:41Z</time>
      </trkpt>
      <trkpt lat="44.06131" lon="5.78531">
        <ele>893.8</ele>
        <time>2011-07-09T09:32:51Z</time>
      </trkpt>
      <trkpt lat="44.06144" lon="5.78547">
        <ele>896.3</ele>
        <time>2011-07-09T09:33:01Z</time>
      </trkpt>
      <trkpt lat="44.06155" lon="5.78564">
        <ele>898.8</ele>
        <time>2011-07-09T09:33:11Z</time>
      </trkpt>
      <trkpt lat="44.06165" lon="5.78578">
        <ele>904</ele>
        <time>2011-07-09T09:33:21Z</time>
      </trkpt>
      <trkpt lat="44.06178" lon="5.78595">
        <ele>909.9</ele>
        <time>2011-07-09T09:33:31Z</time>
      </trkpt>
      <trkpt lat="44.06191" lon="5.78612">
        <ele>910.6</ele>
        <time>2011-07-09T09:33:41Z</time>
      </trkpt>
      <trkpt lat="44.06204" lon="5.78631">
        <ele>906.3</ele>
        <time>2011-07-09T09:33:51Z</time>
      </trkpt>
      <trkpt lat="44.06216" lon="5.78655">
        <ele>903.8</ele>
        <time>2011-07-09T09:34:02.002Z</time>
      </trkpt>
      <trkpt lat="44.06223" lon="5.78677">
        <ele>901.6</ele>
        <time>2011-07-09T09:34:11Z</time>
      </trkpt>
      <trkpt lat="44.06229" lon="5.78703">
        <ele>900.5</ele>
        <time>2011-07-09T09:34:22Z</time>
      </trkpt>
      <trkpt lat="44.06235" lon="5.78728">
        <ele>899.4</ele>
        <time>2011-07-09T09:34:31.998Z</time>
      </trkpt>
      <trkpt lat="44.0624" lon="5.78749">
        <ele>899</ele>
        <time>2011-07-09T09:34:41Z</time>
      </trkpt>
      <trkpt lat="44.06247" lon="5.78773">
        <ele>899.7</ele>
        <time>2011-07-09T09:34:52Z</time>
      </trkpt>
      <trkpt lat="44.0627" lon="5.7882">
        <ele>902.3</ele>
        <time>2011-07-09T09:35:16Z</time>
      </trkpt>
      <trkpt lat="44.06284" lon="5.78828">
        <ele>905.8</ele>
        <time>2011-07-09T09:35:26Z</time>
      </trkpt>
      <trkpt lat="44.0631" lon="5.78829">
        <ele>907.8</ele>
        <time>2011-07-09T09:35:41Z</time>
      </trkpt>
      <trkpt lat="44.0635" lon="5.78828">
        <ele>914.6</ele>
        <time>2011-07-09T09:36:06Z</time>
      </trkpt>
      <trkpt lat="44.06371" lon="5.78826">
        <ele>918</ele>
        <time>2011-07-09T09:36:16.997Z</time>
      </trkpt>
      <trkpt lat="44.06395" lon="5.78825">
        <ele>918.5</ele>
        <time>2011-07-09T09:36:31Z</time>
      </trkpt>
      <trkpt lat="44.06416" lon="5.78822">
        <ele>917.5</ele>
        <time>2011-07-09T09:36:41Z</time>
      </trkpt>
      <trkpt lat="44.06437" lon="5.78824">
        <ele>918.4</ele>
        <time>2011-07-09T09:36:51.998Z</time>
      </trkpt>
      <trkpt lat="44.06448" lon="5.78837">
        <ele>919.4</ele>
        <time>2011-07-09T09:37:01Z</time>
      </trkpt>
      <trkpt lat="44.0646" lon="5.7886">
        <ele>922</ele>
        <time>2011-07-09T09:37:11.998Z</time>
      </trkpt>
      <trkpt lat="44.06463" lon="5.78909">
        <ele>918.8</ele>
        <time>2011-07-09T09:37:31.998Z</time>
      </trkpt>
      <trkpt lat="44.06461" lon="5.78956">
        <ele>918.6</ele>
        <time>2011-07-09T09:37:52Z</time>
      </trkpt>
      <trkpt lat="44.0647" lon="5.78994">
        <ele>918.5</ele>
        <time>2011-07-09T09:38:11.998Z</time>
      </trkpt>
      <trkpt lat="44.06485" lon="5.79008">
        <ele>920.7</ele>
        <time>2011-07-09T09:38:26Z</time>
      </trkpt>
      <trkpt lat="44.06514" lon="5.79023">
        <ele>937.8</ele>
        <time>2011-07-09T09:38:51Z</time>
      </trkpt>
      <trkpt lat="44.06533" lon="5.79039">
        <ele>938.5</ele>
        <time>2011-07-09T09:39:06Z</time>
      </trkpt>
      <trkpt lat="44.06559" lon="5.79052">
        <ele>947</ele>
        <time>2011-07-09T09:39:26Z</time>
      </trkpt>
      <trkpt lat="44.06589" lon="5.79096">
        <ele>914.5</ele>
        <time>2011-07-09T09:44:02Z</time>
      </trkpt>
      <trkpt lat="44.06606" lon="5.79104">
        <ele>915.8</ele>
        <time>2011-07-09T09:44:17.002Z</time>
      </trkpt>
      <trkpt lat="44.06639" lon="5.79116">
        <ele>935.1</ele>
        <time>2011-07-09T09:44:51.998Z</time>
      </trkpt>
      <trkpt lat="44.06663" lon="5.79132">
        <ele>933.8</ele>
        <time>2011-07-09T09:45:12.001Z</time>
      </trkpt>
      <trkpt lat="44.06686" lon="5.79151">
        <ele>931</ele>
        <time>2011-07-09T09:45:32.001Z</time>
      </trkpt>
      <trkpt lat="44.06714" lon="5.79168">
        <ele>929.4</ele>
        <time>2011-07-09T09:45:52.001Z</time>
      </trkpt>
      <trkpt lat="44.06737" lon="5.79183">
        <ele>930.4</ele>
        <time>2011-07-09T09:46:12Z</time>
      </trkpt>
      <trkpt lat="44.06764" lon="5.79201">
        <ele>926.3</ele>
        <time>2011-07-09T09:46:32.001Z</time>
      </trkpt>
      <trkpt lat="44.06778" lon="5.79211">
        <ele>923.8</ele>
        <time>2011-07-09T09:46:42.001Z</time>
      </trkpt>
      <trkpt lat="44.06797" lon="5.79222">
        <ele>918</ele>
        <time>2011-07-09T09:46:51.998Z</time>
      </trkpt>
      <trkpt lat="44.06824" lon="5.79237">
        <ele>916.4</ele>
        <time>2011-07-09T09:47:11.998Z</time>
      </trkpt>
      <trkpt lat="44.0685" lon="5.79251">
        <ele>925.7</ele>
        <time>2011-07-09T09:47:32Z</time>
      </trkpt>
      <trkpt lat="44.06879" lon="5.79266">
        <ele>930.7</ele>
        <time>2011-07-09T09:47:52.001Z</time>
      </trkpt>
      <trkpt lat="44.06901" lon="5.79288">
        <ele>939.3</ele>
        <time>2011-07-09T09:48:12Z</time>
      </trkpt>
      <trkpt lat="44.06921" lon="5.7931">
        <ele>947.5</ele>
        <time>2011-07-09T09:48:32.004Z</time>
      </trkpt>
      <trkpt lat="44.06933" lon="5.79324">
        <ele>945.8</ele>
        <time>2011-07-09T09:48:41.995Z</time>
      </trkpt>
      <trkpt lat="44.06945" lon="5.79341">
        <ele>941.1</ele>
        <time>2011-07-09T09:48:52.001Z</time>
      </trkpt>
      <trkpt lat="44.06964" lon="5.79368">
        <ele>940.9</ele>
        <time>2011-07-09T09:49:12.001Z</time>
      </trkpt>
      <trkpt lat="44.06977" lon="5.79383">
        <ele>938.9</ele>
        <time>2011-07-09T09:49:22.002Z</time>
      </trkpt>
      <trkpt lat="44.06989" lon="5.79396">
        <ele>936.5</ele>
        <time>2011-07-09T09:49:31.998Z</time>
      </trkpt>
      <trkpt lat="44.0701" lon="5.79422">
        <ele>942.3</ele>
        <time>2011-07-09T09:49:52Z</time>
      </trkpt>
      <trkpt lat="44.0704" lon="5.79412">
        <ele>944</ele>
        <time>2011-07-09T09:50:11Z</time>
      </trkpt>
      <trkpt lat="44.07031" lon="5.79366">
        <ele>960.8</ele>
        <time>2011-07-09T09:50:31Z</time>
      </trkpt>
      <trkpt lat="44.07017" lon="5.79349">
        <ele>966.3</ele>
        <time>2011-07-09T09:50:41Z</time>
      </trkpt>
      <trkpt lat="44.07004" lon="5.7933">
        <ele>968.8</ele>
        <time>2011-07-09T09:50:51Z</time>
      </trkpt>
      <trkpt lat="44.06994" lon="5.79306">
        <ele>970</ele>
        <time>2011-07-09T09:51:02Z</time>
      </trkpt>
      <trkpt lat="44.06987" lon="5.79285">
        <ele>969.3</ele>
        <time>2011-07-09T09:51:12.004Z</time>
      </trkpt>
      <trkpt lat="44.06981" lon="5.79265">
        <ele>969.1</ele>
        <time>2011-07-09T09:51:22Z</time>
      </trkpt>
      <trkpt lat="44.0697" lon="5.79227">
        <ele>965.8</ele>
        <time>2011-07-09T09:51:41.998Z</time>
      </trkpt>
      <trkpt lat="44.06961" lon="5.79191">
        <ele>964.6</ele>
        <time>2011-07-09T09:52:02.001Z</time>
      </trkpt>
      <trkpt lat="44.06951" lon="5.79155">
        <ele>968.3</ele>
        <time>2011-07-09T09:52:22Z</time>
      </trkpt>
      <trkpt lat="44.06948" lon="5.79124">
        <ele>966</ele>
        <time>2011-07-09T09:52:37.001Z</time>
      </trkpt>
      <trkpt lat="44.06943" lon="5.79099">
        <ele>962.8</ele>
        <time>2011-07-09T09:52:52Z</time>
      </trkpt>
      <trkpt lat="44.06932" lon="5.79066">
        <ele>965.3</ele>
        <time>2011-07-09T09:53:11Z</time>
      </trkpt>
      <trkpt lat="44.06923" lon="5.79046">
        <ele>974.8</ele>
        <time>2011-07-09T09:53:21Z</time>
      </trkpt>
      <trkpt lat="44.06915" lon="5.79023">
        <ele>979.7</ele>
        <time>2011-07-09T09:53:31.998Z</time>
      </trkpt>
      <trkpt lat="44.06909" lon="5.79002">
        <ele>980.8</ele>
        <time>2011-07-09T09:53:41.998Z</time>
      </trkpt>
      <trkpt lat="44.069" lon="5.78966">
        <ele>978</ele>
        <time>2011-07-09T09:54:02Z</time>
      </trkpt>
      <trkpt lat="44.0689" lon="5.78927">
        <ele>975.7</ele>
        <time>2011-07-09T09:54:22Z</time>
      </trkpt>
      <trkpt lat="44.06891" lon="5.78895">
        <ele>970.2</ele>
        <time>2011-07-09T09:54:36.998Z</time>
      </trkpt>
      <trkpt lat="44.06892" lon="5.7885">
        <ele>976.8</ele>
        <time>2011-07-09T09:54:57.001Z</time>
      </trkpt>
      <trkpt lat="44.06903" lon="5.78809">
        <ele>988</ele>
        <time>2011-07-09T09:55:17Z</time>
      </trkpt>
      <trkpt lat="44.0693" lon="5.78832">
        <ele>1003.1</ele>
        <time>2011-07-09T09:55:46.998Z</time>
      </trkpt>
      <trkpt lat="44.06939" lon="5.78851">
        <ele>997.5</ele>
        <time>2011-07-09T09:55:57.001Z</time>
      </trkpt>
      <trkpt lat="44.06948" lon="5.78872">
        <ele>993.8</ele>
        <time>2011-07-09T09:56:07Z</time>
      </trkpt>
      <trkpt lat="44.06955" lon="5.78892">
        <ele>993.6</ele>
        <time>2011-07-09T09:56:16.998Z</time>
      </trkpt>
      <trkpt lat="44.06973" lon="5.78905">
        <ele>990.4</ele>
        <time>2011-07-09T09:56:26.995Z</time>
      </trkpt>
      <trkpt lat="44.06985" lon="5.78916">
        <ele>988.1</ele>
        <time>2011-07-09T09:56:37.001Z</time>
      </trkpt>
      <trkpt lat="44.06997" lon="5.78931">
        <ele>986.8</ele>
        <time>2011-07-09T09:56:47.001Z</time>
      </trkpt>
      <trkpt lat="44.0702" lon="5.78951">
        <ele>979.9</ele>
        <time>2011-07-09T09:57:06.998Z</time>
      </trkpt>
      <trkpt lat="44.07033" lon="5.78964">
        <ele>979</ele>
        <time>2011-07-09T09:57:16.998Z</time>
      </trkpt>
      <trkpt lat="44.07048" lon="5.78976">
        <ele>980.4</ele>
        <time>2011-07-09T09:57:27Z</time>
      </trkpt>
      <trkpt lat="44.07073" lon="5.79002">
        <ele>1013.5</ele>
        <time>2011-07-09T09:57:56Z</time>
      </trkpt>
      <trkpt lat="44.07094" lon="5.79024">
        <ele>1020.6</ele>
        <time>2011-07-09T09:58:16.998Z</time>
      </trkpt>
      <trkpt lat="44.07116" lon="5.79046">
        <ele>1024.6</ele>
        <time>2011-07-09T09:58:36.995Z</time>
      </trkpt>
      <trkpt lat="44.07131" lon="5.79058">
        <ele>1025</ele>
        <time>2011-07-09T09:58:47.001Z</time>
      </trkpt>
      <trkpt lat="44.07155" lon="5.79078">
        <ele>1028.2</ele>
        <time>2011-07-09T09:59:06Z</time>
      </trkpt>
      <trkpt lat="44.0717" lon="5.79087">
        <ele>1036.8</ele>
        <time>2011-07-09T09:59:17Z</time>
      </trkpt>
      <trkpt lat="44.07183" lon="5.79096">
        <ele>1039.9</ele>
        <time>2011-07-09T09:59:26.998Z</time>
      </trkpt>
      <trkpt lat="44.07196" lon="5.79107">
        <ele>1039.8</ele>
        <time>2011-07-09T09:59:37.001Z</time>
      </trkpt>
      <trkpt lat="44.07223" lon="5.79125">
        <ele>1036.2</ele>
        <time>2011-07-09T09:59:57Z</time>
      </trkpt>
      <trkpt lat="44.07253" lon="5.79139">
        <ele>1034.5</ele>
        <time>2011-07-09T10:00:16Z</time>
      </trkpt>
      <trkpt lat="44.07281" lon="5.79154">
        <ele>1047.5</ele>
        <time>2011-07-09T10:00:36.997Z</time>
      </trkpt>
      <trkpt lat="44.07297" lon="5.79162">
        <ele>1059.4</ele>
        <time>2011-07-09T10:00:51Z</time>
      </trkpt>
      <trkpt lat="44.07315" lon="5.79172">
        <ele>1055.7</ele>
        <time>2011-07-09T10:01:01Z</time>
      </trkpt>
      <trkpt lat="44.07343" lon="5.7919">
        <ele>1049.2</ele>
        <time>2011-07-09T10:01:16.998Z</time>
      </trkpt>
      <trkpt lat="44.07358" lon="5.79204">
        <ele>1047.1</ele>
        <time>2011-07-09T10:01:27Z</time>
      </trkpt>
      <trkpt lat="44.07374" lon="5.79221">
        <ele>1043.3</ele>
        <time>2011-07-09T10:01:36.998Z</time>
      </trkpt>
      <trkpt lat="44.07386" lon="5.79241">
        <ele>1039.6</ele>
        <time>2011-07-09T10:01:46.998Z</time>
      </trkpt>
      <trkpt lat="44.07399" lon="5.79261">
        <ele>1036.7</ele>
        <time>2011-07-09T10:01:57.001Z</time>
      </trkpt>
      <trkpt lat="44.07409" lon="5.7928">
        <ele>1038.6</ele>
        <time>2011-07-09T10:02:07Z</time>
      </trkpt>
      <trkpt lat="44.0742" lon="5.793">
        <ele>1037.7</ele>
        <time>2011-07-09T10:02:17Z</time>
      </trkpt>
      <trkpt lat="44.07433" lon="5.79319">
        <ele>1033.9</ele>
        <time>2011-07-09T10:02:27.001Z</time>
      </trkpt>
      <trkpt lat="44.07446" lon="5.79338">
        <ele>1028.6</ele>
        <time>2011-07-09T10:02:37Z</time>
      </trkpt>
      <trkpt lat="44.07458" lon="5.79355">
        <ele>1029.9</ele>
        <time>2011-07-09T10:02:47.001Z</time>
      </trkpt>
      <trkpt lat="44.07473" lon="5.79372">
        <ele>1032.7</ele>
        <time>2011-07-09T10:02:56.998Z</time>
      </trkpt>
      <trkpt lat="44.07484" lon="5.7939">
        <ele>1033.1</ele>
        <time>2011-07-09T10:03:07.001Z</time>
      </trkpt>
      <trkpt lat="44.07497" lon="5.79409">
        <ele>1036.2</ele>
        <time>2011-07-09T10:03:16.998Z</time>
      </trkpt>
      <trkpt lat="44.07504" lon="5.79431">
        <ele>1039.8</ele>
        <time>2011-07-09T10:03:26.998Z</time>
      </trkpt>
      <trkpt lat="44.07509" lon="5.79453">
        <ele>1044.6</ele>
        <time>2011-07-09T10:03:36.998Z</time>
      </trkpt>
      <trkpt lat="44.07516" lon="5.79476">
        <ele>1047.9</ele>
        <time>2011-07-09T10:03:47Z</time>
      </trkpt>
      <trkpt lat="44.07528" lon="5.79493">
        <ele>1050.4</ele>
        <time>2011-07-09T10:03:56.998Z</time>
      </trkpt>
      <trkpt lat="44.07548" lon="5.79486">
        <ele>1058.2</ele>
        <time>2011-07-09T10:04:12Z</time>
      </trkpt>
      <trkpt lat="44.0755" lon="5.79437">
        <ele>1064.6</ele>
        <time>2011-07-09T10:04:37Z</time>
      </trkpt>
      <trkpt lat="44.07555" lon="5.79416">
        <ele>1060.4</ele>
        <time>2011-07-09T10:04:47Z</time>
      </trkpt>
      <trkpt lat="44.07561" lon="5.79395">
        <ele>1058.5</ele>
        <time>2011-07-09T10:04:57.001Z</time>
      </trkpt>
      <trkpt lat="44.07566" lon="5.79349">
        <ele>1051.3</ele>
        <time>2011-07-09T10:05:17.001Z</time>
      </trkpt>
      <trkpt lat="44.07571" lon="5.79299">
        <ele>1045.2</ele>
        <time>2011-07-09T10:05:37Z</time>
      </trkpt>
      <trkpt lat="44.07567" lon="5.7925">
        <ele>1049.9</ele>
        <time>2011-07-09T10:05:57Z</time>
      </trkpt>
      <trkpt lat="44.07563" lon="5.79217">
        <ele>1047.6</ele>
        <time>2011-07-09T10:06:06.998Z</time>
      </trkpt>
      <trkpt lat="44.07559" lon="5.79181">
        <ele>1048.8</ele>
        <time>2011-07-09T10:06:16.997Z</time>
      </trkpt>
      <trkpt lat="44.07555" lon="5.79147">
        <ele>1049.7</ele>
        <time>2011-07-09T10:06:27.001Z</time>
      </trkpt>
      <trkpt lat="44.07552" lon="5.79118">
        <ele>1048.6</ele>
        <time>2011-07-09T10:06:37Z</time>
      </trkpt>
      <trkpt lat="44.07547" lon="5.79092">
        <ele>1043.7</ele>
        <time>2011-07-09T10:06:47Z</time>
      </trkpt>
      <trkpt lat="44.07544" lon="5.79064">
        <ele>1045.6</ele>
        <time>2011-07-09T10:06:56Z</time>
      </trkpt>
      <trkpt lat="44.07531" lon="5.79025">
        <ele>1057.3</ele>
        <time>2011-07-09T10:07:06.998Z</time>
      </trkpt>
      <trkpt lat="44.07532" lon="5.78988">
        <ele>1059.1</ele>
        <time>2011-07-09T10:07:16.998Z</time>
      </trkpt>
      <trkpt lat="44.07546" lon="5.78963">
        <ele>1064.8</ele>
        <time>2011-07-09T10:07:27Z</time>
      </trkpt>
      <trkpt lat="44.07563" lon="5.78954">
        <ele>1067.4</ele>
        <time>2011-07-09T10:07:37Z</time>
      </trkpt>
      <trkpt lat="44.07584" lon="5.78957">
        <ele>1071.6</ele>
        <time>2011-07-09T10:07:51.998Z</time>
      </trkpt>
      <trkpt lat="44.07606" lon="5.78963">
        <ele>1071.4</ele>
        <time>2011-07-09T10:08:07Z</time>
      </trkpt>
      <trkpt lat="44.07633" lon="5.78976">
        <ele>1079.7</ele>
        <time>2011-07-09T10:08:26.998Z</time>
      </trkpt>
      <trkpt lat="44.07663" lon="5.78987">
        <ele>1083</ele>
        <time>2011-07-09T10:08:47.001Z</time>
      </trkpt>
      <trkpt lat="44.07694" lon="5.78985">
        <ele>1085.1</ele>
        <time>2011-07-09T10:09:07Z</time>
      </trkpt>
      <trkpt lat="44.07707" lon="5.78972">
        <ele>1085.5</ele>
        <time>2011-07-09T10:09:17.001Z</time>
      </trkpt>
      <trkpt lat="44.07716" lon="5.78954">
        <ele>1085.6</ele>
        <time>2011-07-09T10:09:27.002Z</time>
      </trkpt>
      <trkpt lat="44.07723" lon="5.78933">
        <ele>1084.6</ele>
        <time>2011-07-09T10:09:37Z</time>
      </trkpt>
      <trkpt lat="44.07731" lon="5.78895">
        <ele>1080.9</ele>
        <time>2011-07-09T10:09:57.001Z</time>
      </trkpt>
      <trkpt lat="44.07733" lon="5.78862">
        <ele>1083.4</ele>
        <time>2011-07-09T10:10:12Z</time>
      </trkpt>
      <trkpt lat="44.07744" lon="5.78821">
        <ele>1079.4</ele>
        <time>2011-07-09T10:10:31.998Z</time>
      </trkpt>
      <trkpt lat="44.07771" lon="5.78822">
        <ele>1091.8</ele>
        <time>2011-07-09T10:10:56Z</time>
      </trkpt>
      <trkpt lat="44.07785" lon="5.78836">
        <ele>1095.9</ele>
        <time>2011-07-09T10:11:06.998Z</time>
      </trkpt>
      <trkpt lat="44.07798" lon="5.78849">
        <ele>1098.2</ele>
        <time>2011-07-09T10:11:16.995Z</time>
      </trkpt>
      <trkpt lat="44.07812" lon="5.78861">
        <ele>1097.9</ele>
        <time>2011-07-09T10:11:27.001Z</time>
      </trkpt>
      <trkpt lat="44.07827" lon="5.78871">
        <ele>1100.5</ele>
        <time>2011-07-09T10:11:36.998Z</time>
      </trkpt>
      <trkpt lat="44.07856" lon="5.78884">
        <ele>1106.3</ele>
        <time>2011-07-09T10:11:57Z</time>
      </trkpt>
      <trkpt lat="44.07872" lon="5.7889">
        <ele>1104.9</ele>
        <time>2011-07-09T10:12:07Z</time>
      </trkpt>
      <trkpt lat="44.07902" lon="5.78901">
        <ele>1110.9</ele>
        <time>2011-07-09T10:12:26.998Z</time>
      </trkpt>
      <trkpt lat="44.07933" lon="5.78907">
        <ele>1112.9</ele>
        <time>2011-07-09T10:12:46.995Z</time>
      </trkpt>
      <trkpt lat="44.07966" lon="5.78915">
        <ele>1111.4</ele>
        <time>2011-07-09T10:13:06.997Z</time>
      </trkpt>
      <trkpt lat="44.07983" lon="5.78919">
        <ele>1112.1</ele>
        <time>2011-07-09T10:13:17.001Z</time>
      </trkpt>
      <trkpt lat="44.08006" lon="5.78919">
        <ele>1113.7</ele>
        <time>2011-07-09T10:13:32.001Z</time>
      </trkpt>
      <trkpt lat="44.0804" lon="5.78927">
        <ele>1112.8</ele>
        <time>2011-07-09T10:13:51.998Z</time>
      </trkpt>
      <trkpt lat="44.0806" lon="5.7893">
        <ele>1112.8</ele>
        <time>2011-07-09T10:14:02.004Z</time>
      </trkpt>
      <trkpt lat="44.0809" lon="5.78939">
        <ele>1118.9</ele>
        <time>2011-07-09T10:14:22Z</time>
      </trkpt>
      <trkpt lat="44.08113" lon="5.78944">
        <ele>1122.4</ele>
        <time>2011-07-09T10:14:36.989Z</time>
      </trkpt>
      <trkpt lat="44.08133" lon="5.78948">
        <ele>1121.5</ele>
        <time>2011-07-09T10:14:52.001Z</time>
      </trkpt>
      <trkpt lat="44.08151" lon="5.78954">
        <ele>1124.3</ele>
        <time>2011-07-09T10:15:01.998Z</time>
      </trkpt>
      <trkpt lat="44.08167" lon="5.78959">
        <ele>1132.2</ele>
        <time>2011-07-09T10:15:16Z</time>
      </trkpt>
      <trkpt lat="44.0819" lon="5.78964">
        <ele>1136.3</ele>
        <time>2011-07-09T10:15:36.998Z</time>
      </trkpt>
      <trkpt lat="44.08207" lon="5.78972">
        <ele>1135.5</ele>
        <time>2011-07-09T10:15:47Z</time>
      </trkpt>
      <trkpt lat="44.08226" lon="5.78983">
        <ele>1134</ele>
        <time>2011-07-09T10:16:02.004Z</time>
      </trkpt>
      <trkpt lat="44.08243" lon="5.78993">
        <ele>1131.5</ele>
        <time>2011-07-09T10:16:11.998Z</time>
      </trkpt>
      <trkpt lat="44.08258" lon="5.79002">
        <ele>1128.6</ele>
        <time>2011-07-09T10:16:21.998Z</time>
      </trkpt>
      <trkpt lat="44.08287" lon="5.78995">
        <ele>1128.2</ele>
        <time>2011-07-09T10:16:42.001Z</time>
      </trkpt>
      <trkpt lat="44.08283" lon="5.78968">
        <ele>1123.6</ele>
        <time>2011-07-09T10:16:57.001Z</time>
      </trkpt>
      <trkpt lat="44.08271" lon="5.78956">
        <ele>1123.7</ele>
        <time>2011-07-09T10:17:07.001Z</time>
      </trkpt>
      <trkpt lat="44.08248" lon="5.78933">
        <ele>1123.6</ele>
        <time>2011-07-09T10:17:26Z</time>
      </trkpt>
      <trkpt lat="44.08234" lon="5.78923">
        <ele>1132.9</ele>
        <time>2011-07-09T10:17:36Z</time>
      </trkpt>
      <trkpt lat="44.0821" lon="5.78897">
        <ele>1147.1</ele>
        <time>2011-07-09T10:17:56Z</time>
      </trkpt>
      <trkpt lat="44.08199" lon="5.78881">
        <ele>1150.1</ele>
        <time>2011-07-09T10:18:06Z</time>
      </trkpt>
      <trkpt lat="44.0819" lon="5.78865">
        <ele>1154.4</ele>
        <time>2011-07-09T10:18:16Z</time>
      </trkpt>
      <trkpt lat="44.0818" lon="5.78847">
        <ele>1157.3</ele>
        <time>2011-07-09T10:18:27.001Z</time>
      </trkpt>
      <trkpt lat="44.08169" lon="5.78831">
        <ele>1158.1</ele>
        <time>2011-07-09T10:18:36Z</time>
      </trkpt>
      <trkpt lat="44.08163" lon="5.7881">
        <ele>1159.2</ele>
        <time>2011-07-09T10:18:46Z</time>
      </trkpt>
      <trkpt lat="44.08155" lon="5.78781">
        <ele>1157.7</ele>
        <time>2011-07-09T10:19:01Z</time>
      </trkpt>
      <trkpt lat="44.08149" lon="5.78755">
        <ele>1157</ele>
        <time>2011-07-09T10:19:12.001Z</time>
      </trkpt>
      <trkpt lat="44.08145" lon="5.78733">
        <ele>1159.7</ele>
        <time>2011-07-09T10:19:22.001Z</time>
      </trkpt>
      <trkpt lat="44.0814" lon="5.7871">
        <ele>1158.2</ele>
        <time>2011-07-09T10:19:32Z</time>
      </trkpt>
      <trkpt lat="44.08151" lon="5.78674">
        <ele>1157.1</ele>
        <time>2011-07-09T10:19:51.994Z</time>
      </trkpt>
      <trkpt lat="44.08171" lon="5.78675">
        <ele>1155.1</ele>
        <time>2011-07-09T10:20:07Z</time>
      </trkpt>
      <trkpt lat="44.08183" lon="5.78689">
        <ele>1154.4</ele>
        <time>2011-07-09T10:20:17Z</time>
      </trkpt>
      <trkpt lat="44.08198" lon="5.78719">
        <ele>1152.9</ele>
        <time>2011-07-09T10:20:36.998Z</time>
      </trkpt>
      <trkpt lat="44.08215" lon="5.78742">
        <ele>1161.7</ele>
        <time>2011-07-09T10:20:57.001Z</time>
      </trkpt>
      <trkpt lat="44.08228" lon="5.78756">
        <ele>1160.9</ele>
        <time>2011-07-09T10:21:11.998Z</time>
      </trkpt>
      <trkpt lat="44.08254" lon="5.78779">
        <ele>1150.7</ele>
        <time>2011-07-09T10:21:32Z</time>
      </trkpt>
      <trkpt lat="44.08271" lon="5.7879">
        <ele>1149.9</ele>
        <time>2011-07-09T10:21:42Z</time>
      </trkpt>
      <trkpt lat="44.08288" lon="5.78801">
        <ele>1149.2</ele>
        <time>2011-07-09T10:21:52Z</time>
      </trkpt>
      <trkpt lat="44.08302" lon="5.78812">
        <ele>1151.1</ele>
        <time>2011-07-09T10:22:02Z</time>
      </trkpt>
      <trkpt lat="44.0833" lon="5.78829">
        <ele>1154.2</ele>
        <time>2011-07-09T10:22:22.001Z</time>
      </trkpt>
      <trkpt lat="44.08345" lon="5.78839">
        <ele>1159</ele>
        <time>2011-07-09T10:22:31.998Z</time>
      </trkpt>
      <trkpt lat="44.08377" lon="5.78852">
        <ele>1166.4</ele>
        <time>2011-07-09T10:22:51.998Z</time>
      </trkpt>
      <trkpt lat="44.08405" lon="5.7886">
        <ele>1163.6</ele>
        <time>2011-07-09T10:23:12Z</time>
      </trkpt>
      <trkpt lat="44.08448" lon="5.7886">
        <ele>1165.7</ele>
        <time>2011-07-09T10:23:41.998Z</time>
      </trkpt>
      <trkpt lat="44.08472" lon="5.78862">
        <ele>1165</ele>
        <time>2011-07-09T10:23:56.998Z</time>
      </trkpt>
      <trkpt lat="44.08512" lon="5.78864">
        <ele>1174.7</ele>
        <time>2011-07-09T10:24:21.998Z</time>
      </trkpt>
      <trkpt lat="44.08548" lon="5.78866">
        <ele>1175.4</ele>
        <time>2011-07-09T10:24:42.001Z</time>
      </trkpt>
      <trkpt lat="44.08582" lon="5.78865">
        <ele>1172.7</ele>
        <time>2011-07-09T10:25:02.001Z</time>
      </trkpt>
      <trkpt lat="44.08614" lon="5.78866">
        <ele>1171.2</ele>
        <time>2011-07-09T10:25:21.995Z</time>
      </trkpt>
      <trkpt lat="44.08636" lon="5.78867">
        <ele>1170.8</ele>
        <time>2011-07-09T10:25:37Z</time>
      </trkpt>
      <trkpt lat="44.08676" lon="5.78868">
        <ele>1173.9</ele>
        <time>2011-07-09T10:26:01.994Z</time>
      </trkpt>
      <trkpt lat="44.08709" lon="5.78871">
        <ele>1174.4</ele>
        <time>2011-07-09T10:26:22Z</time>
      </trkpt>
      <trkpt lat="44.08751" lon="5.78869">
        <ele>1168.2</ele>
        <time>2011-07-09T10:26:47.002Z</time>
      </trkpt>
      <trkpt lat="44.08779" lon="5.7886">
        <ele>1171.7</ele>
        <time>2011-07-09T10:27:07.002Z</time>
      </trkpt>
      <trkpt lat="44.0881" lon="5.78852">
        <ele>1181.3</ele>
        <time>2011-07-09T10:27:26.998Z</time>
      </trkpt>
      <trkpt lat="44.08824" lon="5.78844">
        <ele>1179.6</ele>
        <time>2011-07-09T10:27:36.997Z</time>
      </trkpt>
      <trkpt lat="44.08838" lon="5.78833">
        <ele>1174.9</ele>
        <time>2011-07-09T10:27:46.998Z</time>
      </trkpt>
      <trkpt lat="44.08853" lon="5.78821">
        <ele>1171.5</ele>
        <time>2011-07-09T10:27:57Z</time>
      </trkpt>
      <trkpt lat="44.08868" lon="5.78812">
        <ele>1171.1</ele>
        <time>2011-07-09T10:28:06.998Z</time>
      </trkpt>
      <trkpt lat="44.08895" lon="5.78798">
        <ele>1183.3</ele>
        <time>2011-07-09T10:28:27.001Z</time>
      </trkpt>
      <trkpt lat="44.08939" lon="5.78794">
        <ele>1198.2</ele>
        <time>2011-07-09T10:28:57.001Z</time>
      </trkpt>
      <trkpt lat="44.08967" lon="5.78813">
        <ele>1197.9</ele>
        <time>2011-07-09T10:29:17Z</time>
      </trkpt>
      <trkpt lat="44.08961" lon="5.78833">
        <ele>1198.8</ele>
        <time>2011-07-09T10:29:32.001Z</time>
      </trkpt>
      <trkpt lat="44.08939" lon="5.78859">
        <ele>1204.7</ele>
        <time>2011-07-09T10:29:52.001Z</time>
      </trkpt>
      <trkpt lat="44.08929" lon="5.78878">
        <ele>1205.6</ele>
        <time>2011-07-09T10:30:01.998Z</time>
      </trkpt>
      <trkpt lat="44.08921" lon="5.78898">
        <ele>1210</ele>
        <time>2011-07-09T10:30:12Z</time>
      </trkpt>
      <trkpt lat="44.08914" lon="5.78917">
        <ele>1211.9</ele>
        <time>2011-07-09T10:30:22Z</time>
      </trkpt>
      <trkpt lat="44.08901" lon="5.78956">
        <ele>1212.2</ele>
        <time>2011-07-09T10:30:41Z</time>
      </trkpt>
      <trkpt lat="44.0889" lon="5.78973">
        <ele>1211.4</ele>
        <time>2011-07-09T10:30:51Z</time>
      </trkpt>
      <trkpt lat="44.08882" lon="5.78992">
        <ele>1215.6</ele>
        <time>2011-07-09T10:31:01Z</time>
      </trkpt>
      <trkpt lat="44.08875" lon="5.79012">
        <ele>1219.5</ele>
        <time>2011-07-09T10:31:11Z</time>
      </trkpt>
      <trkpt lat="44.08869" lon="5.79054">
        <ele>1227.1</ele>
        <time>2011-07-09T10:31:31Z</time>
      </trkpt>
      <trkpt lat="44.08875" lon="5.79098">
        <ele>1233.1</ele>
        <time>2011-07-09T10:31:52Z</time>
      </trkpt>
      <trkpt lat="44.08884" lon="5.7912">
        <ele>1233.7</ele>
        <time>2011-07-09T10:32:02Z</time>
      </trkpt>
      <trkpt lat="44.08895" lon="5.79141">
        <ele>1235.5</ele>
        <time>2011-07-09T10:32:12Z</time>
      </trkpt>
      <trkpt lat="44.08902" lon="5.79162">
        <ele>1234.2</ele>
        <time>2011-07-09T10:32:22.001Z</time>
      </trkpt>
      <trkpt lat="44.08911" lon="5.79182">
        <ele>1229.4</ele>
        <time>2011-07-09T10:32:31.998Z</time>
      </trkpt>
      <trkpt lat="44.08919" lon="5.79204">
        <ele>1233.2</ele>
        <time>2011-07-09T10:32:42.001Z</time>
      </trkpt>
      <trkpt lat="44.08927" lon="5.79225">
        <ele>1238.2</ele>
        <time>2011-07-09T10:32:51.998Z</time>
      </trkpt>
      <trkpt lat="44.08934" lon="5.79246">
        <ele>1241.4</ele>
        <time>2011-07-09T10:33:01.998Z</time>
      </trkpt>
      <trkpt lat="44.08941" lon="5.79265">
        <ele>1240.5</ele>
        <time>2011-07-09T10:33:11.997Z</time>
      </trkpt>
      <trkpt lat="44.08963" lon="5.79292">
        <ele>1238.9</ele>
        <time>2011-07-09T10:33:32.001Z</time>
      </trkpt>
      <trkpt lat="44.08977" lon="5.79301">
        <ele>1238.9</ele>
        <time>2011-07-09T10:33:42.001Z</time>
      </trkpt>
      <trkpt lat="44.0901" lon="5.79308">
        <ele>1239.8</ele>
        <time>2011-07-09T10:34:07.001Z</time>
      </trkpt>
      <trkpt lat="44.09041" lon="5.79315">
        <ele>1254.9</ele>
        <time>2011-07-09T10:36:37Z</time>
      </trkpt>
      <trkpt lat="44.09055" lon="5.79289">
        <ele>1225.1</ele>
        <time>2011-07-09T10:54:47Z</time>
      </trkpt>
      <trkpt lat="44.09077" lon="5.79273">
        <ele>1232.5</ele>
        <time>2011-07-09T10:55:12Z</time>
      </trkpt>
      <trkpt lat="44.09105" lon="5.79261">
        <ele>1239.8</ele>
        <time>2011-07-09T10:55:42.001Z</time>
      </trkpt>
      <trkpt lat="44.09123" lon="5.79247">
        <ele>1245.6</ele>
        <time>2011-07-09T10:56:07.001Z</time>
      </trkpt>
      <trkpt lat="44.09134" lon="5.79234">
        <ele>1235.9</ele>
        <time>2011-07-09T10:56:27.001Z</time>
      </trkpt>
      <trkpt lat="44.09161" lon="5.79217">
        <ele>1237.3</ele>
        <time>2011-07-09T10:56:52Z</time>
      </trkpt>
      <trkpt lat="44.09185" lon="5.79203">
        <ele>1241.7</ele>
        <time>2011-07-09T10:57:11.998Z</time>
      </trkpt>
      <trkpt lat="44.092" lon="5.79195">
        <ele>1247.5</ele>
        <time>2011-07-09T10:57:21Z</time>
      </trkpt>
      <trkpt lat="44.09226" lon="5.79181">
        <ele>1262.6</ele>
        <time>2011-07-09T10:57:41Z</time>
      </trkpt>
      <trkpt lat="44.09256" lon="5.79168">
        <ele>1283.5</ele>
        <time>2011-07-09T10:58:07.001Z</time>
      </trkpt>
      <trkpt lat="44.0927" lon="5.79159">
        <ele>1286.9</ele>
        <time>2011-07-09T10:58:22.001Z</time>
      </trkpt>
      <trkpt lat="44.09289" lon="5.79151">
        <ele>1282.1</ele>
        <time>2011-07-09T10:58:36.998Z</time>
      </trkpt>
      <trkpt lat="44.09313" lon="5.79139">
        <ele>1280.2</ele>
        <time>2011-07-09T10:58:56.995Z</time>
      </trkpt>
      <trkpt lat="44.09328" lon="5.7913">
        <ele>1279.1</ele>
        <time>2011-07-09T10:59:06Z</time>
      </trkpt>
      <trkpt lat="44.09356" lon="5.79115">
        <ele>1283.7</ele>
        <time>2011-07-09T10:59:17Z</time>
      </trkpt>
      <trkpt lat="44.09368" lon="5.79101">
        <ele>1286.8</ele>
        <time>2011-07-09T10:59:27.001Z</time>
      </trkpt>
      <trkpt lat="44.0934" lon="5.79088">
        <ele>1283.4</ele>
        <time>2011-07-09T10:59:47.002Z</time>
      </trkpt>
      <trkpt lat="44.09318" lon="5.7909">
        <ele>1273.8</ele>
        <time>2011-07-09T11:03:46.995Z</time>
      </trkpt>
      <trkpt lat="44.09299" lon="5.79081">
        <ele>1277.1</ele>
        <time>2011-07-09T11:03:57Z</time>
      </trkpt>
      <trkpt lat="44.09281" lon="5.79071">
        <ele>1275.7</ele>
        <time>2011-07-09T11:04:07.001Z</time>
      </trkpt>
      <trkpt lat="44.0925" lon="5.79049">
        <ele>1280.5</ele>
        <time>2011-07-09T11:04:22Z</time>
      </trkpt>
      <trkpt lat="44.09235" lon="5.79027">
        <ele>1283.8</ele>
        <time>2011-07-09T11:04:32.001Z</time>
      </trkpt>
      <trkpt lat="44.09228" lon="5.78996">
        <ele>1290.3</ele>
        <time>2011-07-09T11:04:41.998Z</time>
      </trkpt>
      <trkpt lat="44.09229" lon="5.78967">
        <ele>1298.1</ele>
        <time>2011-07-09T11:04:52Z</time>
      </trkpt>
      <trkpt lat="44.09234" lon="5.78938">
        <ele>1302.4</ele>
        <time>2011-07-09T11:05:01.998Z</time>
      </trkpt>
      <trkpt lat="44.09242" lon="5.78909">
        <ele>1305.1</ele>
        <time>2011-07-09T11:05:12Z</time>
      </trkpt>
      <trkpt lat="44.09248" lon="5.78879">
        <ele>1303.5</ele>
        <time>2011-07-09T11:05:22.001Z</time>
      </trkpt>
      <trkpt lat="44.09255" lon="5.7885">
        <ele>1300.8</ele>
        <time>2011-07-09T11:05:31.997Z</time>
      </trkpt>
      <trkpt lat="44.09261" lon="5.78824">
        <ele>1301.7</ele>
        <time>2011-07-09T11:05:42Z</time>
      </trkpt>
      <trkpt lat="44.09268" lon="5.78795">
        <ele>1304</ele>
        <time>2011-07-09T11:05:52.001Z</time>
      </trkpt>
      <trkpt lat="44.09274" lon="5.78766">
        <ele>1307.1</ele>
        <time>2011-07-09T11:06:02.001Z</time>
      </trkpt>
      <trkpt lat="44.09279" lon="5.78737">
        <ele>1311.3</ele>
        <time>2011-07-09T11:06:12.001Z</time>
      </trkpt>
      <trkpt lat="44.0929" lon="5.78716">
        <ele>1312.7</ele>
        <time>2011-07-09T11:06:22Z</time>
      </trkpt>
      <trkpt lat="44.09298" lon="5.78737">
        <ele>1316.3</ele>
        <time>2011-07-09T11:06:32Z</time>
      </trkpt>
      <trkpt lat="44.09301" lon="5.78764">
        <ele>1316.3</ele>
        <time>2011-07-09T11:06:42Z</time>
      </trkpt>
      <trkpt lat="44.09304" lon="5.78789">
        <ele>1316.2</ele>
        <time>2011-07-09T11:06:52Z</time>
      </trkpt>
      <trkpt lat="44.09311" lon="5.78814">
        <ele>1315.2</ele>
        <time>2011-07-09T11:07:02Z</time>
      </trkpt>
      <trkpt lat="44.09324" lon="5.78836">
        <ele>1310.6</ele>
        <time>2011-07-09T11:07:12Z</time>
      </trkpt>
      <trkpt lat="44.09341" lon="5.7885">
        <ele>1307.5</ele>
        <time>2011-07-09T11:07:21.998Z</time>
      </trkpt>
      <trkpt lat="44.09355" lon="5.78832">
        <ele>1308.9</ele>
        <time>2011-07-09T11:07:32Z</time>
      </trkpt>
      <trkpt lat="44.09357" lon="5.78799">
        <ele>1311.6</ele>
        <time>2011-07-09T11:07:42.001Z</time>
      </trkpt>
      <trkpt lat="44.09364" lon="5.78767">
        <ele>1314.4</ele>
        <time>2011-07-09T11:07:52Z</time>
      </trkpt>
      <trkpt lat="44.09381" lon="5.7874">
        <ele>1313</ele>
        <time>2011-07-09T11:08:02Z</time>
      </trkpt>
      <trkpt lat="44.09413" lon="5.78718">
        <ele>1319.7</ele>
        <time>2011-07-09T11:08:17Z</time>
      </trkpt>
      <trkpt lat="44.09433" lon="5.78721">
        <ele>1321.2</ele>
        <time>2011-07-09T11:08:27Z</time>
      </trkpt>
      <trkpt lat="44.09444" lon="5.78744">
        <ele>1321.5</ele>
        <time>2011-07-09T11:08:37Z</time>
      </trkpt>
      <trkpt lat="44.0945" lon="5.78771">
        <ele>1324.5</ele>
        <time>2011-07-09T11:08:46.998Z</time>
      </trkpt>
      <trkpt lat="44.09462" lon="5.78791">
        <ele>1327.3</ele>
        <time>2011-07-09T11:08:57Z</time>
      </trkpt>
      <trkpt lat="44.09479" lon="5.78775">
        <ele>1328.8</ele>
        <time>2011-07-09T11:09:07Z</time>
      </trkpt>
      <trkpt lat="44.09491" lon="5.78748">
        <ele>1332</ele>
        <time>2011-07-09T11:09:17Z</time>
      </trkpt>
      <trkpt lat="44.09511" lon="5.78732">
        <ele>1336.2</ele>
        <time>2011-07-09T11:09:27.001Z</time>
      </trkpt>
      <trkpt lat="44.09531" lon="5.78723">
        <ele>1338.8</ele>
        <time>2011-07-09T11:09:37Z</time>
      </trkpt>
      <trkpt lat="44.09551" lon="5.78724">
        <ele>1342.7</ele>
        <time>2011-07-09T11:09:46.995Z</time>
      </trkpt>
      <trkpt lat="44.09585" lon="5.78726">
        <ele>1347</ele>
        <time>2011-07-09T11:10:07Z</time>
      </trkpt>
      <trkpt lat="44.09604" lon="5.78723">
        <ele>1349.9</ele>
        <time>2011-07-09T11:10:17Z</time>
      </trkpt>
      <trkpt lat="44.09621" lon="5.78714">
        <ele>1352.8</ele>
        <time>2011-07-09T11:10:27.001Z</time>
      </trkpt>
      <trkpt lat="44.09637" lon="5.78721">
        <ele>1355.7</ele>
        <time>2011-07-09T11:10:37.001Z</time>
      </trkpt>
      <trkpt lat="44.09621" lon="5.78755">
        <ele>1359.4</ele>
        <time>2011-07-09T11:10:56Z</time>
      </trkpt>
      <trkpt lat="44.09612" lon="5.78779">
        <ele>1360.4</ele>
        <time>2011-07-09T11:11:06Z</time>
      </trkpt>
      <trkpt lat="44.09609" lon="5.78807">
        <ele>1361</ele>
        <time>2011-07-09T11:11:16Z</time>
      </trkpt>
      <trkpt lat="44.09624" lon="5.78824">
        <ele>1362.3</ele>
        <time>2011-07-09T11:11:26Z</time>
      </trkpt>
      <trkpt lat="44.09656" lon="5.78808">
        <ele>1365.4</ele>
        <time>2011-07-09T11:11:47Z</time>
      </trkpt>
      <trkpt lat="44.09671" lon="5.78796">
        <ele>1365.6</ele>
        <time>2011-07-09T11:11:56.998Z</time>
      </trkpt>
      <trkpt lat="44.09684" lon="5.78783">
        <ele>1368.3</ele>
        <time>2011-07-09T11:12:06.998Z</time>
      </trkpt>
      <trkpt lat="44.09696" lon="5.78771">
        <ele>1370.8</ele>
        <time>2011-07-09T11:12:16.998Z</time>
      </trkpt>
      <trkpt lat="44.09707" lon="5.78755">
        <ele>1371.7</ele>
        <time>2011-07-09T11:12:26.998Z</time>
      </trkpt>
      <trkpt lat="44.09715" lon="5.78734">
        <ele>1373.8</ele>
        <time>2011-07-09T11:12:36.998Z</time>
      </trkpt>
      <trkpt lat="44.0972" lon="5.78713">
        <ele>1373.6</ele>
        <time>2011-07-09T11:12:46.998Z</time>
      </trkpt>
      <trkpt lat="44.09731" lon="5.78677">
        <ele>1374.2</ele>
        <time>2011-07-09T11:13:07Z</time>
      </trkpt>
      <trkpt lat="44.09742" lon="5.78641">
        <ele>1384.6</ele>
        <time>2011-07-09T11:13:27Z</time>
      </trkpt>
      <trkpt lat="44.09752" lon="5.78625">
        <ele>1388</ele>
        <time>2011-07-09T11:13:36.998Z</time>
      </trkpt>
      <trkpt lat="44.09767" lon="5.78593">
        <ele>1389.8</ele>
        <time>2011-07-09T11:13:56.998Z</time>
      </trkpt>
      <trkpt lat="44.09782" lon="5.7856">
        <ele>1394.6</ele>
        <time>2011-07-09T11:14:16.998Z</time>
      </trkpt>
      <trkpt lat="44.09792" lon="5.7852">
        <ele>1392.4</ele>
        <time>2011-07-09T11:14:37Z</time>
      </trkpt>
      <trkpt lat="44.09799" lon="5.78479">
        <ele>1396.9</ele>
        <time>2011-07-09T11:14:57.001Z</time>
      </trkpt>
      <trkpt lat="44.09799" lon="5.78428">
        <ele>1404</ele>
        <time>2011-07-09T11:15:22Z</time>
      </trkpt>
      <trkpt lat="44.09793" lon="5.78386">
        <ele>1407.6</ele>
        <time>2011-07-09T11:15:41.998Z</time>
      </trkpt>
      <trkpt lat="44.09787" lon="5.78335">
        <ele>1419.7</ele>
        <time>2011-07-09T11:16:07Z</time>
      </trkpt>
      <trkpt lat="44.09792" lon="5.78306">
        <ele>1427.4</ele>
        <time>2011-07-09T11:16:22Z</time>
      </trkpt>
      <trkpt lat="44.09805" lon="5.78319">
        <ele>1427.4</ele>
        <time>2011-07-09T11:16:36.998Z</time>
      </trkpt>
      <trkpt lat="44.09813" lon="5.78337">
        <ele>1426.2</ele>
        <time>2011-07-09T11:16:47Z</time>
      </trkpt>
      <trkpt lat="44.09829" lon="5.78365">
        <ele>1411.1</ele>
        <time>2011-07-09T11:17:06.998Z</time>
      </trkpt>
      <trkpt lat="44.09854" lon="5.78385">
        <ele>1409.7</ele>
        <time>2011-07-09T11:17:27.001Z</time>
      </trkpt>
      <trkpt lat="44.09869" lon="5.78399">
        <ele>1414.6</ele>
        <time>2011-07-09T11:17:36.998Z</time>
      </trkpt>
      <trkpt lat="44.09882" lon="5.7841">
        <ele>1417.8</ele>
        <time>2011-07-09T11:17:46.998Z</time>
      </trkpt>
      <trkpt lat="44.099" lon="5.78421">
        <ele>1419.3</ele>
        <time>2011-07-09T11:17:57Z</time>
      </trkpt>
      <trkpt lat="44.09933" lon="5.78427">
        <ele>1411.4</ele>
        <time>2011-07-09T11:18:17Z</time>
      </trkpt>
      <trkpt lat="44.09971" lon="5.78428">
        <ele>1419.4</ele>
        <time>2011-07-09T11:18:41.998Z</time>
      </trkpt>
      <trkpt lat="44.10002" lon="5.7842">
        <ele>1419.9</ele>
        <time>2011-07-09T11:19:02.001Z</time>
      </trkpt>
      <trkpt lat="44.10022" lon="5.78417">
        <ele>1420.3</ele>
        <time>2011-07-09T11:19:17.001Z</time>
      </trkpt>
      <trkpt lat="44.10057" lon="5.78409">
        <ele>1425.7</ele>
        <time>2011-07-09T11:19:42Z</time>
      </trkpt>
      <trkpt lat="44.10092" lon="5.78411">
        <ele>1429.9</ele>
        <time>2011-07-09T11:20:11.998Z</time>
      </trkpt>
      <trkpt lat="44.10126" lon="5.78418">
        <ele>1441.5</ele>
        <time>2011-07-09T11:20:41Z</time>
      </trkpt>
      <trkpt lat="44.10145" lon="5.78421">
        <ele>1442</ele>
        <time>2011-07-09T11:20:51Z</time>
      </trkpt>
      <trkpt lat="44.10163" lon="5.78425">
        <ele>1443.3</ele>
        <time>2011-07-09T11:21:01Z</time>
      </trkpt>
      <trkpt lat="44.10193" lon="5.78436">
        <ele>1447.5</ele>
        <time>2011-07-09T11:21:21Z</time>
      </trkpt>
      <trkpt lat="44.10219" lon="5.7845">
        <ele>1449.3</ele>
        <time>2011-07-09T11:21:41Z</time>
      </trkpt>
      <trkpt lat="44.10242" lon="5.78468">
        <ele>1451.3</ele>
        <time>2011-07-09T11:22:01.998Z</time>
      </trkpt>
      <trkpt lat="44.10266" lon="5.78493">
        <ele>1459.4</ele>
        <time>2011-07-09T11:22:21.998Z</time>
      </trkpt>
      <trkpt lat="44.10277" lon="5.7851">
        <ele>1462.3</ele>
        <time>2011-07-09T11:22:32Z</time>
      </trkpt>
      <trkpt lat="44.10286" lon="5.78526">
        <ele>1463.6</ele>
        <time>2011-07-09T11:22:41.998Z</time>
      </trkpt>
      <trkpt lat="44.10295" lon="5.78542">
        <ele>1462.6</ele>
        <time>2011-07-09T11:22:51.998Z</time>
      </trkpt>
      <trkpt lat="44.10316" lon="5.78533">
        <ele>1458.3</ele>
        <time>2011-07-09T11:23:11.998Z</time>
      </trkpt>
      <trkpt lat="44.10311" lon="5.78506">
        <ele>1462.2</ele>
        <time>2011-07-09T11:23:26.995Z</time>
      </trkpt>
      <trkpt lat="44.10308" lon="5.78465">
        <ele>1466.5</ele>
        <time>2011-07-09T11:23:46.991Z</time>
      </trkpt>
      <trkpt lat="44.10312" lon="5.78422">
        <ele>1464.8</ele>
        <time>2011-07-09T11:24:07.001Z</time>
      </trkpt>
      <trkpt lat="44.10316" lon="5.78376">
        <ele>1464.4</ele>
        <time>2011-07-09T11:24:32.001Z</time>
      </trkpt>
      <trkpt lat="44.10326" lon="5.78355">
        <ele>1441.8</ele>
        <time>2011-07-09T11:27:01.998Z</time>
      </trkpt>
      <trkpt lat="44.10345" lon="5.78358">
        <ele>1446</ele>
        <time>2011-07-09T11:27:22.001Z</time>
      </trkpt>
      <trkpt lat="44.10352" lon="5.78382">
        <ele>1447.5</ele>
        <time>2011-07-09T11:27:36.995Z</time>
      </trkpt>
      <trkpt lat="44.10368" lon="5.78415">
        <ele>1451.9</ele>
        <time>2011-07-09T11:27:57Z</time>
      </trkpt>
      <trkpt lat="44.10393" lon="5.78436">
        <ele>1454.5</ele>
        <time>2011-07-09T11:28:22.001Z</time>
      </trkpt>
      <trkpt lat="44.10412" lon="5.7844">
        <ele>1451.8</ele>
        <time>2011-07-09T11:28:36.998Z</time>
      </trkpt>
      <trkpt lat="44.10446" lon="5.78437">
        <ele>1454.5</ele>
        <time>2011-07-09T11:29:01.998Z</time>
      </trkpt>
      <trkpt lat="44.10466" lon="5.78433">
        <ele>1461.4</ele>
        <time>2011-07-09T11:29:16.998Z</time>
      </trkpt>
      <trkpt lat="44.10493" lon="5.78422">
        <ele>1460.9</ele>
        <time>2011-07-09T11:29:37.001Z</time>
      </trkpt>
      <trkpt lat="44.10502" lon="5.78406">
        <ele>1457.8</ele>
        <time>2011-07-09T11:29:46.998Z</time>
      </trkpt>
      <trkpt lat="44.10494" lon="5.78381">
        <ele>1457</ele>
        <time>2011-07-09T11:30:02.001Z</time>
      </trkpt>
      <trkpt lat="44.10482" lon="5.78346">
        <ele>1459.1</ele>
        <time>2011-07-09T11:30:22.001Z</time>
      </trkpt>
      <trkpt lat="44.10499" lon="5.7832">
        <ele>1462.5</ele>
        <time>2011-07-09T11:30:41Z</time>
      </trkpt>
      <trkpt lat="44.10521" lon="5.7834">
        <ele>1477.9</ele>
        <time>2011-07-09T11:31:01Z</time>
      </trkpt>
      <trkpt lat="44.1054" lon="5.78365">
        <ele>1488.9</ele>
        <time>2011-07-09T11:31:21Z</time>
      </trkpt>
      <trkpt lat="44.10561" lon="5.78392">
        <ele>1495.5</ele>
        <time>2011-07-09T11:31:42Z</time>
      </trkpt>
      <trkpt lat="44.10586" lon="5.78411">
        <ele>1500.4</ele>
        <time>2011-07-09T11:32:02.001Z</time>
      </trkpt>
      <trkpt lat="44.10614" lon="5.78428">
        <ele>1505</ele>
        <time>2011-07-09T11:32:21.998Z</time>
      </trkpt>
      <trkpt lat="44.10628" lon="5.78437">
        <ele>1506.8</ele>
        <time>2011-07-09T11:32:32.001Z</time>
      </trkpt>
      <trkpt lat="44.10643" lon="5.78445">
        <ele>1504.9</ele>
        <time>2011-07-09T11:32:42.001Z</time>
      </trkpt>
      <trkpt lat="44.1067" lon="5.78463">
        <ele>1501.1</ele>
        <time>2011-07-09T11:33:02Z</time>
      </trkpt>
      <trkpt lat="44.10698" lon="5.78485">
        <ele>1502.8</ele>
        <time>2011-07-09T11:33:27.001Z</time>
      </trkpt>
      <trkpt lat="44.10723" lon="5.78505">
        <ele>1499.8</ele>
        <time>2011-07-09T11:33:46.998Z</time>
      </trkpt>
      <trkpt lat="44.10749" lon="5.78526">
        <ele>1497</ele>
        <time>2011-07-09T11:34:06.998Z</time>
      </trkpt>
      <trkpt lat="44.10764" lon="5.78537">
        <ele>1497</ele>
        <time>2011-07-09T11:34:17.001Z</time>
      </trkpt>
      <trkpt lat="44.10777" lon="5.7855">
        <ele>1502.2</ele>
        <time>2011-07-09T11:34:26.998Z</time>
      </trkpt>
      <trkpt lat="44.10786" lon="5.78568">
        <ele>1509.6</ele>
        <time>2011-07-09T11:34:36.998Z</time>
      </trkpt>
      <trkpt lat="44.10794" lon="5.78589">
        <ele>1512.9</ele>
        <time>2011-07-09T11:34:47Z</time>
      </trkpt>
      <trkpt lat="44.10801" lon="5.7861">
        <ele>1514.6</ele>
        <time>2011-07-09T11:34:57.001Z</time>
      </trkpt>
      <trkpt lat="44.10807" lon="5.78629">
        <ele>1511.5</ele>
        <time>2011-07-09T11:35:07.001Z</time>
      </trkpt>
      <trkpt lat="44.10817" lon="5.78647">
        <ele>1512.5</ele>
        <time>2011-07-09T11:35:17.005Z</time>
      </trkpt>
      <trkpt lat="44.10831" lon="5.78633">
        <ele>1513</ele>
        <time>2011-07-09T11:35:32.001Z</time>
      </trkpt>
      <trkpt lat="44.10833" lon="5.78586">
        <ele>1506.1</ele>
        <time>2011-07-09T11:35:52.004Z</time>
      </trkpt>
      <trkpt lat="44.1083" lon="5.7855">
        <ele>1508.4</ele>
        <time>2011-07-09T11:36:06Z</time>
      </trkpt>
      <trkpt lat="44.10822" lon="5.78522">
        <ele>1519.6</ele>
        <time>2011-07-09T11:36:16.994Z</time>
      </trkpt>
      <trkpt lat="44.10817" lon="5.78499">
        <ele>1524.4</ele>
        <time>2011-07-09T11:36:26.998Z</time>
      </trkpt>
      <trkpt lat="44.10807" lon="5.78477">
        <ele>1525.6</ele>
        <time>2011-07-09T11:36:37.001Z</time>
      </trkpt>
      <trkpt lat="44.10799" lon="5.78453">
        <ele>1522.2</ele>
        <time>2011-07-09T11:36:46.998Z</time>
      </trkpt>
      <trkpt lat="44.10788" lon="5.78431">
        <ele>1522.1</ele>
        <time>2011-07-09T11:36:56.997Z</time>
      </trkpt>
      <trkpt lat="44.10783" lon="5.78406">
        <ele>1521.7</ele>
        <time>2011-07-09T11:37:07.004Z</time>
      </trkpt>
      <trkpt lat="44.10788" lon="5.78361">
        <ele>1519.7</ele>
        <time>2011-07-09T11:37:26.995Z</time>
      </trkpt>
      <trkpt lat="44.10796" lon="5.78341">
        <ele>1517.4</ele>
        <time>2011-07-09T11:37:36.998Z</time>
      </trkpt>
      <trkpt lat="44.10809" lon="5.78326">
        <ele>1518</ele>
        <time>2011-07-09T11:37:46.997Z</time>
      </trkpt>
      <trkpt lat="44.10836" lon="5.78309">
        <ele>1523</ele>
        <time>2011-07-09T11:38:06.998Z</time>
      </trkpt>
      <trkpt lat="44.10858" lon="5.78286">
        <ele>1536.4</ele>
        <time>2011-07-09T11:38:27.002Z</time>
      </trkpt>
      <trkpt lat="44.10884" lon="5.78268">
        <ele>1540.1</ele>
        <time>2011-07-09T11:38:46.998Z</time>
      </trkpt>
      <trkpt lat="44.10914" lon="5.78253">
        <ele>1526</ele>
        <time>2011-07-09T11:39:07.002Z</time>
      </trkpt>
      <trkpt lat="44.1093" lon="5.78246">
        <ele>1520.2</ele>
        <time>2011-07-09T11:39:17Z</time>
      </trkpt>
      <trkpt lat="44.10957" lon="5.78226">
        <ele>1522.5</ele>
        <time>2011-07-09T11:39:36.997Z</time>
      </trkpt>
      <trkpt lat="44.10972" lon="5.78215">
        <ele>1522.6</ele>
        <time>2011-07-09T11:39:47Z</time>
      </trkpt>
      <trkpt lat="44.10984" lon="5.78203">
        <ele>1523.2</ele>
        <time>2011-07-09T11:39:57Z</time>
      </trkpt>
      <trkpt lat="44.11011" lon="5.78186">
        <ele>1518</ele>
        <time>2011-07-09T11:40:17Z</time>
      </trkpt>
      <trkpt lat="44.1103" lon="5.78174">
        <ele>1548.2</ele>
        <time>2011-07-09T11:42:47Z</time>
      </trkpt>
      <trkpt lat="44.1105" lon="5.78173">
        <ele>1543</ele>
        <time>2011-07-09T11:43:02Z</time>
      </trkpt>
      <trkpt lat="44.11084" lon="5.78181">
        <ele>1541.9</ele>
        <time>2011-07-09T11:43:22.001Z</time>
      </trkpt>
      <trkpt lat="44.11116" lon="5.78188">
        <ele>1548.4</ele>
        <time>2011-07-09T11:43:41.998Z</time>
      </trkpt>
      <trkpt lat="44.11131" lon="5.78199">
        <ele>1550</ele>
        <time>2011-07-09T11:43:52Z</time>
      </trkpt>
      <trkpt lat="44.11144" lon="5.78212">
        <ele>1549.2</ele>
        <time>2011-07-09T11:44:02Z</time>
      </trkpt>
      <trkpt lat="44.11159" lon="5.78225">
        <ele>1549.9</ele>
        <time>2011-07-09T11:44:11.998Z</time>
      </trkpt>
      <trkpt lat="44.11177" lon="5.78232">
        <ele>1549.9</ele>
        <time>2011-07-09T11:44:22Z</time>
      </trkpt>
      <trkpt lat="44.11195" lon="5.78235">
        <ele>1547.8</ele>
        <time>2011-07-09T11:44:32Z</time>
      </trkpt>
      <trkpt lat="44.11217" lon="5.7823">
        <ele>1543.2</ele>
        <time>2011-07-09T11:44:47Z</time>
      </trkpt>
      <trkpt lat="44.11233" lon="5.78222">
        <ele>1541.2</ele>
        <time>2011-07-09T11:44:57.004Z</time>
      </trkpt>
      <trkpt lat="44.11248" lon="5.78214">
        <ele>1540.7</ele>
        <time>2011-07-09T11:45:07.001Z</time>
      </trkpt>
      <trkpt lat="44.11274" lon="5.78196">
        <ele>1543</ele>
        <time>2011-07-09T11:45:27Z</time>
      </trkpt>
      <trkpt lat="44.11305" lon="5.78187">
        <ele>1542.7</ele>
        <time>2011-07-09T11:45:52Z</time>
      </trkpt>
      <trkpt lat="44.11343" lon="5.7818">
        <ele>1557.1</ele>
        <time>2011-07-09T11:46:21.998Z</time>
      </trkpt>
      <trkpt lat="44.11373" lon="5.78165">
        <ele>1559.4</ele>
        <time>2011-07-09T11:46:47Z</time>
      </trkpt>
      <trkpt lat="44.1139" lon="5.78157">
        <ele>1564.3</ele>
        <time>2011-07-09T11:47:02Z</time>
      </trkpt>
      <trkpt lat="44.11414" lon="5.78137">
        <ele>1570.6</ele>
        <time>2011-07-09T11:47:22.001Z</time>
      </trkpt>
      <trkpt lat="44.11425" lon="5.78122">
        <ele>1568.8</ele>
        <time>2011-07-09T11:47:31.998Z</time>
      </trkpt>
      <trkpt lat="44.11422" lon="5.78081">
        <ele>1575.6</ele>
        <time>2011-07-09T11:47:52.001Z</time>
      </trkpt>
      <trkpt lat="44.11413" lon="5.78061">
        <ele>1581.1</ele>
        <time>2011-07-09T11:48:01.997Z</time>
      </trkpt>
      <trkpt lat="44.11435" lon="5.7806">
        <ele>1592.9</ele>
        <time>2011-07-09T11:48:22Z</time>
      </trkpt>
      <trkpt lat="44.11449" lon="5.7807">
        <ele>1593.5</ele>
        <time>2011-07-09T11:48:31.998Z</time>
      </trkpt>
      <trkpt lat="44.11471" lon="5.78091">
        <ele>1594.2</ele>
        <time>2011-07-09T11:48:52.001Z</time>
      </trkpt>
      <trkpt lat="44.1148" lon="5.78108">
        <ele>1597</ele>
        <time>2011-07-09T11:49:02Z</time>
      </trkpt>
      <trkpt lat="44.11489" lon="5.78126">
        <ele>1598.6</ele>
        <time>2011-07-09T11:49:12.001Z</time>
      </trkpt>
      <trkpt lat="44.11499" lon="5.78146">
        <ele>1599.4</ele>
        <time>2011-07-09T11:49:22Z</time>
      </trkpt>
      <trkpt lat="44.11509" lon="5.78162">
        <ele>1601</ele>
        <time>2011-07-09T11:49:32.001Z</time>
      </trkpt>
      <trkpt lat="44.1152" lon="5.78179">
        <ele>1602.8</ele>
        <time>2011-07-09T11:49:42.001Z</time>
      </trkpt>
      <trkpt lat="44.11531" lon="5.78195">
        <ele>1603.9</ele>
        <time>2011-07-09T11:49:52Z</time>
      </trkpt>
      <trkpt lat="44.11543" lon="5.78211">
        <ele>1604.3</ele>
        <time>2011-07-09T11:50:02Z</time>
      </trkpt>
      <trkpt lat="44.11554" lon="5.78226">
        <ele>1606.3</ele>
        <time>2011-07-09T11:50:12.001Z</time>
      </trkpt>
      <trkpt lat="44.11566" lon="5.78239">
        <ele>1608.1</ele>
        <time>2011-07-09T11:50:21.998Z</time>
      </trkpt>
      <trkpt lat="44.11579" lon="5.78252">
        <ele>1606.9</ele>
        <time>2011-07-09T11:50:31.998Z</time>
      </trkpt>
      <trkpt lat="44.11594" lon="5.78262">
        <ele>1606</ele>
        <time>2011-07-09T11:50:42Z</time>
      </trkpt>
      <trkpt lat="44.11609" lon="5.78271">
        <ele>1607.3</ele>
        <time>2011-07-09T11:50:52Z</time>
      </trkpt>
      <trkpt lat="44.11622" lon="5.78281">
        <ele>1609.9</ele>
        <time>2011-07-09T11:51:02.001Z</time>
      </trkpt>
      <trkpt lat="44.1165" lon="5.78297">
        <ele>1610.3</ele>
        <time>2011-07-09T11:51:22.001Z</time>
      </trkpt>
      <trkpt lat="44.11678" lon="5.78311">
        <ele>1615.6</ele>
        <time>2011-07-09T11:51:42Z</time>
      </trkpt>
      <trkpt lat="44.11708" lon="5.78315">
        <ele>1600.6</ele>
        <time>2011-07-09T11:54:07.001Z</time>
      </trkpt>
      <trkpt lat="44.11727" lon="5.78321">
        <ele>1595.8</ele>
        <time>2011-07-09T11:54:32Z</time>
      </trkpt>
      <trkpt lat="44.11757" lon="5.78332">
        <ele>1593.5</ele>
        <time>2011-07-09T11:54:52.001Z</time>
      </trkpt>
      <trkpt lat="44.11793" lon="5.78342">
        <ele>1595.7</ele>
        <time>2011-07-09T11:55:17.001Z</time>
      </trkpt>
      <trkpt lat="44.11823" lon="5.78355">
        <ele>1605.3</ele>
        <time>2011-07-09T11:55:36.998Z</time>
      </trkpt>
      <trkpt lat="44.11854" lon="5.78364">
        <ele>1619</ele>
        <time>2011-07-09T11:55:57Z</time>
      </trkpt>
      <trkpt lat="44.11881" lon="5.7838">
        <ele>1619.2</ele>
        <time>2011-07-09T11:56:16.998Z</time>
      </trkpt>
      <trkpt lat="44.11895" lon="5.78399">
        <ele>1618.1</ele>
        <time>2011-07-09T11:56:27.001Z</time>
      </trkpt>
      <trkpt lat="44.11908" lon="5.78422">
        <ele>1620.8</ele>
        <time>2011-07-09T11:56:37.001Z</time>
      </trkpt>
      <trkpt lat="44.11901" lon="5.78451">
        <ele>1627.2</ele>
        <time>2011-07-09T11:56:46.998Z</time>
      </trkpt>
      <trkpt lat="44.11883" lon="5.78468">
        <ele>1636.9</ele>
        <time>2011-07-09T11:56:57.004Z</time>
      </trkpt>
      <trkpt lat="44.1186" lon="5.78484">
        <ele>1640.9</ele>
        <time>2011-07-09T11:57:06.998Z</time>
      </trkpt>
      <trkpt lat="44.11832" lon="5.78507">
        <ele>1642.5</ele>
        <time>2011-07-09T11:57:21.998Z</time>
      </trkpt>
      <trkpt lat="44.11813" lon="5.78522">
        <ele>1644.8</ele>
        <time>2011-07-09T11:57:32Z</time>
      </trkpt>
      <trkpt lat="44.11796" lon="5.78535">
        <ele>1646.1</ele>
        <time>2011-07-09T11:57:41Z</time>
      </trkpt>
      <trkpt lat="44.11775" lon="5.78541">
        <ele>1649.2</ele>
        <time>2011-07-09T11:57:51.998Z</time>
      </trkpt>
      <trkpt lat="44.11758" lon="5.78551">
        <ele>1652.5</ele>
        <time>2011-07-09T11:58:02.004Z</time>
      </trkpt>
      <trkpt lat="44.11745" lon="5.78562">
        <ele>1651.4</ele>
        <time>2011-07-09T11:58:11Z</time>
      </trkpt>
      <trkpt lat="44.11718" lon="5.78577">
        <ele>1651.5</ele>
        <time>2011-07-09T11:58:31Z</time>
      </trkpt>
      <trkpt lat="44.11704" lon="5.7859">
        <ele>1649.8</ele>
        <time>2011-07-09T11:58:41Z</time>
      </trkpt>
      <trkpt lat="44.1169" lon="5.78603">
        <ele>1651</ele>
        <time>2011-07-09T11:58:51Z</time>
      </trkpt>
      <trkpt lat="44.11673" lon="5.78611">
        <ele>1653.7</ele>
        <time>2011-07-09T11:59:01Z</time>
      </trkpt>
      <trkpt lat="44.11657" lon="5.78622">
        <ele>1657.1</ele>
        <time>2011-07-09T11:59:11Z</time>
      </trkpt>
      <trkpt lat="44.11642" lon="5.78634">
        <ele>1658.1</ele>
        <time>2011-07-09T11:59:21Z</time>
      </trkpt>
      <trkpt lat="44.11628" lon="5.78647">
        <ele>1658.6</ele>
        <time>2011-07-09T11:59:31Z</time>
      </trkpt>
      <trkpt lat="44.11616" lon="5.78665">
        <ele>1661.4</ele>
        <time>2011-07-09T11:59:41Z</time>
      </trkpt>
      <trkpt lat="44.11605" lon="5.7868">
        <ele>1665.2</ele>
        <time>2011-07-09T11:59:51Z</time>
      </trkpt>
      <trkpt lat="44.11594" lon="5.78702">
        <ele>1664.8</ele>
        <time>2011-07-09T12:00:02Z</time>
      </trkpt>
      <trkpt lat="44.11589" lon="5.7873">
        <ele>1663.6</ele>
        <time>2011-07-09T12:00:12.002Z</time>
      </trkpt>
      <trkpt lat="44.11586" lon="5.78757">
        <ele>1665</ele>
        <time>2011-07-09T12:00:21Z</time>
      </trkpt>
      <trkpt lat="44.1159" lon="5.78786">
        <ele>1665.6</ele>
        <time>2011-07-09T12:00:31Z</time>
      </trkpt>
      <trkpt lat="44.11598" lon="5.78811">
        <ele>1667.9</ele>
        <time>2011-07-09T12:00:41Z</time>
      </trkpt>
      <trkpt lat="44.11609" lon="5.78831">
        <ele>1670.2</ele>
        <time>2011-07-09T12:00:51Z</time>
      </trkpt>
      <trkpt lat="44.1162" lon="5.78848">
        <ele>1676.1</ele>
        <time>2011-07-09T12:01:01Z</time>
      </trkpt>
      <trkpt lat="44.11637" lon="5.78859">
        <ele>1678.5</ele>
        <time>2011-07-09T12:01:11Z</time>
      </trkpt>
      <trkpt lat="44.11656" lon="5.78866">
        <ele>1677.1</ele>
        <time>2011-07-09T12:01:21Z</time>
      </trkpt>
      <trkpt lat="44.11677" lon="5.78871">
        <ele>1677.7</ele>
        <time>2011-07-09T12:01:31Z</time>
      </trkpt>
      <trkpt lat="44.11715" lon="5.7887">
        <ele>1676</ele>
        <time>2011-07-09T12:01:51Z</time>
      </trkpt>
      <trkpt lat="44.1175" lon="5.78867">
        <ele>1689.1</ele>
        <time>2011-07-09T12:02:11Z</time>
      </trkpt>
      <trkpt lat="44.11785" lon="5.78858">
        <ele>1696.9</ele>
        <time>2011-07-09T12:02:31Z</time>
      </trkpt>
      <trkpt lat="44.11801" lon="5.78852">
        <ele>1698.5</ele>
        <time>2011-07-09T12:02:41Z</time>
      </trkpt>
      <trkpt lat="44.11818" lon="5.78847">
        <ele>1698.2</ele>
        <time>2011-07-09T12:02:51Z</time>
      </trkpt>
      <trkpt lat="44.11835" lon="5.78839">
        <ele>1697.7</ele>
        <time>2011-07-09T12:03:01Z</time>
      </trkpt>
      <trkpt lat="44.11853" lon="5.78829">
        <ele>1697.1</ele>
        <time>2011-07-09T12:03:11Z</time>
      </trkpt>
      <trkpt lat="44.11871" lon="5.78819">
        <ele>1696</ele>
        <time>2011-07-09T12:03:21Z</time>
      </trkpt>
      <trkpt lat="44.11902" lon="5.788">
        <ele>1694.4</ele>
        <time>2011-07-09T12:03:37.001Z</time>
      </trkpt>
      <trkpt lat="44.11919" lon="5.78791">
        <ele>1688.8</ele>
        <time>2011-07-09T12:04:26Z</time>
      </trkpt>
      <trkpt lat="44.11947" lon="5.78759">
        <ele>1698.8</ele>
        <time>2011-07-09T12:06:56Z</time>
      </trkpt>
      <trkpt lat="44.11962" lon="5.78742">
        <ele>1697.5</ele>
        <time>2011-07-09T12:07:06.998Z</time>
      </trkpt>
      <trkpt lat="44.11976" lon="5.78726">
        <ele>1697.4</ele>
        <time>2011-07-09T12:07:16.998Z</time>
      </trkpt>
      <trkpt lat="44.12" lon="5.78697">
        <ele>1700.4</ele>
        <time>2011-07-09T12:07:31Z</time>
      </trkpt>
      <trkpt lat="44.12013" lon="5.7868">
        <ele>1701.5</ele>
        <time>2011-07-09T12:07:37.001Z</time>
      </trkpt>
      <trkpt lat="44.12024" lon="5.78664">
        <ele>1701.8</ele>
        <time>2011-07-09T12:07:42.002Z</time>
      </trkpt>
      <trkpt lat="44.12035" lon="5.7865">
        <ele>1701.7</ele>
        <time>2011-07-09T12:07:47.002Z</time>
      </trkpt>
      <trkpt lat="44.12055" lon="5.78626">
        <ele>1702.2</ele>
        <time>2011-07-09T12:07:56.998Z</time>
      </trkpt>
      <trkpt lat="44.12076" lon="5.78621">
        <ele>1704</ele>
        <time>2011-07-09T12:08:07Z</time>
      </trkpt>
      <trkpt lat="44.12098" lon="5.78627">
        <ele>1702.2</ele>
        <time>2011-07-09T12:08:16.998Z</time>
      </trkpt>
      <trkpt lat="44.12118" lon="5.78646">
        <ele>1700.3</ele>
        <time>2011-07-09T12:08:27Z</time>
      </trkpt>
      <trkpt lat="44.12134" lon="5.78678">
        <ele>1697.8</ele>
        <time>2011-07-09T12:08:37.004Z</time>
      </trkpt>
      <trkpt lat="44.12131" lon="5.78717">
        <ele>1698.6</ele>
        <time>2011-07-09T12:08:47.004Z</time>
      </trkpt>
      <trkpt lat="44.1212" lon="5.78749">
        <ele>1701.2</ele>
        <time>2011-07-09T12:08:56.998Z</time>
      </trkpt>
      <trkpt lat="44.12111" lon="5.78785">
        <ele>1698.8</ele>
        <time>2011-07-09T12:09:06.998Z</time>
      </trkpt>
      <trkpt lat="44.12103" lon="5.78823">
        <ele>1697.6</ele>
        <time>2011-07-09T12:09:16Z</time>
      </trkpt>
      <trkpt lat="44.12096" lon="5.78867">
        <ele>1702.6</ele>
        <time>2011-07-09T12:09:26Z</time>
      </trkpt>
      <trkpt lat="44.12092" lon="5.78898">
        <ele>1704.3</ele>
        <time>2011-07-09T12:09:31.998Z</time>
      </trkpt>
      <trkpt lat="44.12093" lon="5.78946">
        <ele>1707.2</ele>
        <time>2011-07-09T12:09:41Z</time>
      </trkpt>
      <trkpt lat="44.12103" lon="5.78972">
        <ele>1709.8</ele>
        <time>2011-07-09T12:09:46Z</time>
      </trkpt>
      <trkpt lat="44.12123" lon="5.78993">
        <ele>1710.2</ele>
        <time>2011-07-09T12:09:52Z</time>
      </trkpt>
      <trkpt lat="44.12144" lon="5.79003">
        <ele>1709.7</ele>
        <time>2011-07-09T12:09:57.001Z</time>
      </trkpt>
      <trkpt lat="44.12166" lon="5.79011">
        <ele>1708.7</ele>
        <time>2011-07-09T12:10:02Z</time>
      </trkpt>
      <trkpt lat="44.12186" lon="5.79019">
        <ele>1708</ele>
        <time>2011-07-09T12:10:07Z</time>
      </trkpt>
      <trkpt lat="44.12207" lon="5.79024">
        <ele>1708</ele>
        <time>2011-07-09T12:10:12Z</time>
      </trkpt>
      <trkpt lat="44.12227" lon="5.79031">
        <ele>1709.3</ele>
        <time>2011-07-09T12:10:17.001Z</time>
      </trkpt>
      <trkpt lat="44.12248" lon="5.7904">
        <ele>1710.8</ele>
        <time>2011-07-09T12:10:22Z</time>
      </trkpt>
      <trkpt lat="44.12269" lon="5.79052">
        <ele>1710.8</ele>
        <time>2011-07-09T12:10:26.998Z</time>
      </trkpt>
      <trkpt lat="44.12289" lon="5.79068">
        <ele>1708.7</ele>
        <time>2011-07-09T12:10:32.001Z</time>
      </trkpt>
      <trkpt lat="44.1231" lon="5.79084">
        <ele>1706.5</ele>
        <time>2011-07-09T12:10:36.998Z</time>
      </trkpt>
      <trkpt lat="44.1233" lon="5.79099">
        <ele>1705.9</ele>
        <time>2011-07-09T12:10:41.998Z</time>
      </trkpt>
      <trkpt lat="44.12349" lon="5.79118">
        <ele>1705.9</ele>
        <time>2011-07-09T12:10:47Z</time>
      </trkpt>
      <trkpt lat="44.12354" lon="5.79146">
        <ele>1705.6</ele>
        <time>2011-07-09T12:10:52.001Z</time>
      </trkpt>
      <trkpt lat="44.12347" lon="5.79166">
        <ele>1705.4</ele>
        <time>2011-07-09T12:10:57Z</time>
      </trkpt>
      <trkpt lat="44.12337" lon="5.79183">
        <ele>1705.2</ele>
        <time>2011-07-09T12:11:02.001Z</time>
      </trkpt>
      <trkpt lat="44.12328" lon="5.79199">
        <ele>1705</ele>
        <time>2011-07-09T12:11:07.002Z</time>
      </trkpt>
      <trkpt lat="44.12318" lon="5.79215">
        <ele>1704.8</ele>
        <time>2011-07-09T12:11:11.998Z</time>
      </trkpt>
      <trkpt lat="44.12308" lon="5.79231">
        <ele>1704.6</ele>
        <time>2011-07-09T12:11:17Z</time>
      </trkpt>
      <trkpt lat="44.12297" lon="5.79248">
        <ele>1704.5</ele>
        <time>2011-07-09T12:11:21.997Z</time>
      </trkpt>
      <trkpt lat="44.12287" lon="5.79263">
        <ele>1703.9</ele>
        <time>2011-07-09T12:11:26.998Z</time>
      </trkpt>
      <trkpt lat="44.12277" lon="5.7928">
        <ele>1703.5</ele>
        <time>2011-07-09T12:11:31.998Z</time>
      </trkpt>
      <trkpt lat="44.12262" lon="5.79313">
        <ele>1703.3</ele>
        <time>2011-07-09T12:11:41.998Z</time>
      </trkpt>
      <trkpt lat="44.1225" lon="5.79346">
        <ele>1701.1</ele>
        <time>2011-07-09T12:11:51.998Z</time>
      </trkpt>
      <trkpt lat="44.12238" lon="5.7938">
        <ele>1700.6</ele>
        <time>2011-07-09T12:12:02Z</time>
      </trkpt>
      <trkpt lat="44.12227" lon="5.79414">
        <ele>1701.8</ele>
        <time>2011-07-09T12:12:12Z</time>
      </trkpt>
      <trkpt lat="44.12213" lon="5.79446">
        <ele>1704.3</ele>
        <time>2011-07-09T12:12:21.997Z</time>
      </trkpt>
      <trkpt lat="44.12178" lon="5.79454">
        <ele>1705.8</ele>
        <time>2011-07-09T12:12:36.997Z</time>
      </trkpt>
      <trkpt lat="44.12156" lon="5.79447">
        <ele>1705.9</ele>
        <time>2011-07-09T12:12:46.998Z</time>
      </trkpt>
      <trkpt lat="44.1213" lon="5.79447">
        <ele>1705.7</ele>
        <time>2011-07-09T12:12:56.998Z</time>
      </trkpt>
      <trkpt lat="44.12106" lon="5.79451">
        <ele>1704.8</ele>
        <time>2011-07-09T12:13:07.004Z</time>
      </trkpt>
      <trkpt lat="44.12082" lon="5.79458">
        <ele>1703.8</ele>
        <time>2011-07-09T12:13:16.998Z</time>
      </trkpt>
      <trkpt lat="44.12058" lon="5.79466">
        <ele>1702.5</ele>
        <time>2011-07-09T12:13:27Z</time>
      </trkpt>
      <trkpt lat="44.12033" lon="5.79479">
        <ele>1699.6</ele>
        <time>2011-07-09T12:13:36.998Z</time>
      </trkpt>
      <trkpt lat="44.12011" lon="5.79496">
        <ele>1694.8</ele>
        <time>2011-07-09T12:13:46.998Z</time>
      </trkpt>
      <trkpt lat="44.1199" lon="5.79515">
        <ele>1693.9</ele>
        <time>2011-07-09T12:13:57.001Z</time>
      </trkpt>
      <trkpt lat="44.11969" lon="5.79529">
        <ele>1694.8</ele>
        <time>2011-07-09T12:14:07Z</time>
      </trkpt>
      <trkpt lat="44.11937" lon="5.79555">
        <ele>1695.7</ele>
        <time>2011-07-09T12:14:22.001Z</time>
      </trkpt>
      <trkpt lat="44.11918" lon="5.79581">
        <ele>1695.9</ele>
        <time>2011-07-09T12:14:32Z</time>
      </trkpt>
      <trkpt lat="44.11903" lon="5.79611">
        <ele>1697.4</ele>
        <time>2011-07-09T12:14:42Z</time>
      </trkpt>
      <trkpt lat="44.11899" lon="5.7966">
        <ele>1706.9</ele>
        <time>2011-07-09T12:14:56.998Z</time>
      </trkpt>
      <trkpt lat="44.11909" lon="5.79694">
        <ele>1710.5</ele>
        <time>2011-07-09T12:15:06.998Z</time>
      </trkpt>
      <trkpt lat="44.11923" lon="5.79725">
        <ele>1715.6</ele>
        <time>2011-07-09T12:15:17Z</time>
      </trkpt>
      <trkpt lat="44.11939" lon="5.79754">
        <ele>1719.1</ele>
        <time>2011-07-09T12:15:27Z</time>
      </trkpt>
      <trkpt lat="44.11956" lon="5.79783">
        <ele>1722.6</ele>
        <time>2011-07-09T12:15:36.998Z</time>
      </trkpt>
      <trkpt lat="44.11974" lon="5.79811">
        <ele>1721.3</ele>
        <time>2011-07-09T12:15:46.998Z</time>
      </trkpt>
      <trkpt lat="44.11989" lon="5.79841">
        <ele>1723.1</ele>
        <time>2011-07-09T12:15:57Z</time>
      </trkpt>
      <trkpt lat="44.11998" lon="5.79859">
        <ele>1729.1</ele>
        <time>2011-07-09T12:16:06Z</time>
      </trkpt>
      <trkpt lat="44.12016" lon="5.7988">
        <ele>1733.8</ele>
        <time>2011-07-09T12:16:16.994Z</time>
      </trkpt>
      <trkpt lat="44.1203" lon="5.7991">
        <ele>1737.7</ele>
        <time>2011-07-09T12:16:27.001Z</time>
      </trkpt>
      <trkpt lat="44.12044" lon="5.79941">
        <ele>1743.5</ele>
        <time>2011-07-09T12:16:36.998Z</time>
      </trkpt>
      <trkpt lat="44.12058" lon="5.79972">
        <ele>1746.1</ele>
        <time>2011-07-09T12:16:47.001Z</time>
      </trkpt>
      <trkpt lat="44.12075" lon="5.79998">
        <ele>1745.9</ele>
        <time>2011-07-09T12:16:57.001Z</time>
      </trkpt>
      <trkpt lat="44.12094" lon="5.80026">
        <ele>1745.5</ele>
        <time>2011-07-09T12:17:07.001Z</time>
      </trkpt>
      <trkpt lat="44.12085" lon="5.80053">
        <ele>1746.2</ele>
        <time>2011-07-09T12:17:16.998Z</time>
      </trkpt>
      <trkpt lat="44.12065" lon="5.80064">
        <ele>1746.9</ele>
        <time>2011-07-09T12:17:26.997Z</time>
      </trkpt>
      <trkpt lat="44.12044" lon="5.80077">
        <ele>1747.2</ele>
        <time>2011-07-09T12:17:36.998Z</time>
      </trkpt>
      <trkpt lat="44.1202" lon="5.8009">
        <ele>1745.7</ele>
        <time>2011-07-09T12:17:46.997Z</time>
      </trkpt>
      <trkpt lat="44.11996" lon="5.80105">
        <ele>1741.3</ele>
        <time>2011-07-09T12:17:56.998Z</time>
      </trkpt>
      <trkpt lat="44.11962" lon="5.80123">
        <ele>1740.5</ele>
        <time>2011-07-09T12:18:11.998Z</time>
      </trkpt>
      <trkpt lat="44.11941" lon="5.80139">
        <ele>1741.3</ele>
        <time>2011-07-09T12:18:21.998Z</time>
      </trkpt>
      <trkpt lat="44.11922" lon="5.80162">
        <ele>1739.7</ele>
        <time>2011-07-09T12:18:32.004Z</time>
      </trkpt>
      <trkpt lat="44.11905" lon="5.80199">
        <ele>1736.6</ele>
        <time>2011-07-09T12:18:47Z</time>
      </trkpt>
      <trkpt lat="44.11901" lon="5.80225">
        <ele>1741</ele>
        <time>2011-07-09T12:19:02Z</time>
      </trkpt>
      <trkpt lat="44.1191" lon="5.80201">
        <ele>1749.7</ele>
        <time>2011-07-09T12:19:51Z</time>
      </trkpt>
      <trkpt lat="44.11923" lon="5.8022">
        <ele>1754.2</ele>
        <time>2011-07-09T12:20:07.002Z</time>
      </trkpt>
      <trkpt lat="44.11937" lon="5.80236">
        <ele>1756.2</ele>
        <time>2011-07-09T12:20:16.998Z</time>
      </trkpt>
      <trkpt lat="44.11951" lon="5.80254">
        <ele>1758.4</ele>
        <time>2011-07-09T12:20:27.002Z</time>
      </trkpt>
      <trkpt lat="44.11965" lon="5.80271">
        <ele>1762.6</ele>
        <time>2011-07-09T12:20:37.002Z</time>
      </trkpt>
      <trkpt lat="44.11979" lon="5.80287">
        <ele>1767.7</ele>
        <time>2011-07-09T12:20:51.997Z</time>
      </trkpt>
      <trkpt lat="44.11992" lon="5.80306">
        <ele>1769.9</ele>
        <time>2011-07-09T12:21:12Z</time>
      </trkpt>
      <trkpt lat="44.12004" lon="5.80323">
        <ele>1768.5</ele>
        <time>2011-07-09T12:21:21.998Z</time>
      </trkpt>
      <trkpt lat="44.12015" lon="5.80339">
        <ele>1766.9</ele>
        <time>2011-07-09T12:21:32.001Z</time>
      </trkpt>
      <trkpt lat="44.12013" lon="5.80295">
        <ele>1771.5</ele>
        <time>2011-07-09T12:22:12.001Z</time>
      </trkpt>
      <trkpt lat="44.12007" lon="5.8027">
        <ele>1773.5</ele>
        <time>2011-07-09T12:22:27.001Z</time>
      </trkpt>
      <trkpt lat="44.12012" lon="5.80218">
        <ele>1777.8</ele>
        <time>2011-07-09T12:23:12.001Z</time>
      </trkpt>
      <trkpt lat="44.12024" lon="5.80201">
        <ele>1779</ele>
        <time>2011-07-09T12:23:27Z</time>
      </trkpt>
      <trkpt lat="44.12054" lon="5.80189">
        <ele>1776.6</ele>
        <time>2011-07-09T12:23:46.998Z</time>
      </trkpt>
      <trkpt lat="44.12092" lon="5.80183">
        <ele>1772.2</ele>
        <time>2011-07-09T12:24:12Z</time>
      </trkpt>
      <trkpt lat="44.12123" lon="5.80176">
        <ele>1773.7</ele>
        <time>2011-07-09T12:24:32.005Z</time>
      </trkpt>
      <trkpt lat="44.12152" lon="5.80164">
        <ele>1778.2</ele>
        <time>2011-07-09T12:24:52Z</time>
      </trkpt>
      <trkpt lat="44.12179" lon="5.80147">
        <ele>1781.9</ele>
        <time>2011-07-09T12:25:11.998Z</time>
      </trkpt>
      <trkpt lat="44.12194" lon="5.80139">
        <ele>1783.2</ele>
        <time>2011-07-09T12:25:22Z</time>
      </trkpt>
      <trkpt lat="44.1221" lon="5.80129">
        <ele>1784.5</ele>
        <time>2011-07-09T12:25:32Z</time>
      </trkpt>
      <trkpt lat="44.12226" lon="5.8012">
        <ele>1785.1</ele>
        <time>2011-07-09T12:25:42Z</time>
      </trkpt>
      <trkpt lat="44.12242" lon="5.80111">
        <ele>1785.5</ele>
        <time>2011-07-09T12:25:52.001Z</time>
      </trkpt>
      <trkpt lat="44.12257" lon="5.801">
        <ele>1787.6</ele>
        <time>2011-07-09T12:26:02Z</time>
      </trkpt>
      <trkpt lat="44.12271" lon="5.80086">
        <ele>1790.3</ele>
        <time>2011-07-09T12:26:12Z</time>
      </trkpt>
      <trkpt lat="44.12286" lon="5.80076">
        <ele>1788.7</ele>
        <time>2011-07-09T12:26:22Z</time>
      </trkpt>
      <trkpt lat="44.12301" lon="5.80064">
        <ele>1787.5</ele>
        <time>2011-07-09T12:26:32Z</time>
      </trkpt>
      <trkpt lat="44.12315" lon="5.80046">
        <ele>1790.3</ele>
        <time>2011-07-09T12:26:41.998Z</time>
      </trkpt>
      <trkpt lat="44.12327" lon="5.80027">
        <ele>1792.9</ele>
        <time>2011-07-09T12:26:52Z</time>
      </trkpt>
      <trkpt lat="44.12338" lon="5.8001">
        <ele>1794.5</ele>
        <time>2011-07-09T12:27:02Z</time>
      </trkpt>
      <trkpt lat="44.12348" lon="5.80027">
        <ele>1802.5</ele>
        <time>2011-07-09T12:27:42Z</time>
      </trkpt>
      <trkpt lat="44.12338" lon="5.80044">
        <ele>1811.2</ele>
        <time>2011-07-09T12:29:37.001Z</time>
      </trkpt>
      <trkpt lat="44.12333" lon="5.80093">
        <ele>1817.9</ele>
        <time>2011-07-09T12:30:06Z</time>
      </trkpt>
      <trkpt lat="44.12327" lon="5.80117">
        <ele>1820.4</ele>
        <time>2011-07-09T12:30:21Z</time>
      </trkpt>
      <trkpt lat="44.12317" lon="5.80153">
        <ele>1824</ele>
        <time>2011-07-09T12:30:41.998Z</time>
      </trkpt>
      <trkpt lat="44.12302" lon="5.80184">
        <ele>1829.8</ele>
        <time>2011-07-09T12:31:02Z</time>
      </trkpt>
      <trkpt lat="44.12289" lon="5.80198">
        <ele>1831.2</ele>
        <time>2011-07-09T12:31:12Z</time>
      </trkpt>
      <trkpt lat="44.12276" lon="5.80209">
        <ele>1831.8</ele>
        <time>2011-07-09T12:31:22Z</time>
      </trkpt>
      <trkpt lat="44.12253" lon="5.8023">
        <ele>1836.1</ele>
        <time>2011-07-09T12:31:42.002Z</time>
      </trkpt>
      <trkpt lat="44.12251" lon="5.80268">
        <ele>1804</ele>
        <time>2011-07-09T12:37:17Z</time>
      </trkpt>
      <trkpt lat="44.12271" lon="5.80223">
        <ele>1820.4</ele>
        <time>2011-07-09T12:44:22.001Z</time>
      </trkpt>
      <trkpt lat="44.12287" lon="5.80214">
        <ele>1817.3</ele>
        <time>2011-07-09T12:44:51.998Z</time>
      </trkpt>
      <trkpt lat="44.12298" lon="5.80198">
        <ele>1815</ele>
        <time>2011-07-09T12:45:07.001Z</time>
      </trkpt>
      <trkpt lat="44.12306" lon="5.8018">
        <ele>1811.7</ele>
        <time>2011-07-09T12:45:16.998Z</time>
      </trkpt>
      <trkpt lat="44.12313" lon="5.80154">
        <ele>1809.7</ele>
        <time>2011-07-09T12:45:32.001Z</time>
      </trkpt>
      <trkpt lat="44.12318" lon="5.80131">
        <ele>1808.6</ele>
        <time>2011-07-09T12:45:37Z</time>
      </trkpt>
      <trkpt lat="44.12339" lon="5.8008">
        <ele>1809</ele>
        <time>2011-07-09T12:49:06.997Z</time>
      </trkpt>
      <trkpt lat="44.12354" lon="5.79993">
        <ele>1806</ele>
        <time>2011-07-09T12:49:21.001Z</time>
      </trkpt>
      <trkpt lat="44.12335" lon="5.80012">
        <ele>1798.9</ele>
        <time>2011-07-09T12:49:56.001Z</time>
      </trkpt>
      <trkpt lat="44.12322" lon="5.80029">
        <ele>1790.1</ele>
        <time>2011-07-09T12:50:41Z</time>
      </trkpt>
      <trkpt lat="44.12307" lon="5.80049">
        <ele>1789.5</ele>
        <time>2011-07-09T12:50:46.001Z</time>
      </trkpt>
      <trkpt lat="44.12292" lon="5.80068">
        <ele>1788.3</ele>
        <time>2011-07-09T12:50:51Z</time>
      </trkpt>
      <trkpt lat="44.12279" lon="5.80081">
        <ele>1784.3</ele>
        <time>2011-07-09T12:51:00.998Z</time>
      </trkpt>
      <trkpt lat="44.1226" lon="5.80094">
        <ele>1782</ele>
        <time>2011-07-09T12:51:06Z</time>
      </trkpt>
      <trkpt lat="44.12231" lon="5.80116">
        <ele>1779.5</ele>
        <time>2011-07-09T12:51:11Z</time>
      </trkpt>
      <trkpt lat="44.12199" lon="5.80135">
        <ele>1775.9</ele>
        <time>2011-07-09T12:51:16Z</time>
      </trkpt>
      <trkpt lat="44.12161" lon="5.80156">
        <ele>1772.8</ele>
        <time>2011-07-09T12:51:21Z</time>
      </trkpt>
      <trkpt lat="44.1212" lon="5.80174">
        <ele>1771.6</ele>
        <time>2011-07-09T12:51:26.001Z</time>
      </trkpt>
      <trkpt lat="44.12081" lon="5.80181">
        <ele>1770.3</ele>
        <time>2011-07-09T12:51:30.998Z</time>
      </trkpt>
      <trkpt lat="44.12057" lon="5.80188">
        <ele>1768.6</ele>
        <time>2011-07-09T12:51:36.001Z</time>
      </trkpt>
      <trkpt lat="44.12036" lon="5.80191">
        <ele>1768.6</ele>
        <time>2011-07-09T12:51:46.001Z</time>
      </trkpt>
      <trkpt lat="44.12015" lon="5.80204">
        <ele>1766.4</ele>
        <time>2011-07-09T12:51:55.998Z</time>
      </trkpt>
      <trkpt lat="44.12007" lon="5.80227">
        <ele>1763.8</ele>
        <time>2011-07-09T12:52:06.001Z</time>
      </trkpt>
      <trkpt lat="44.12006" lon="5.80255">
        <ele>1761.2</ele>
        <time>2011-07-09T12:52:15.998Z</time>
      </trkpt>
      <trkpt lat="44.12009" lon="5.80283">
        <ele>1758.4</ele>
        <time>2011-07-09T12:52:26Z</time>
      </trkpt>
      <trkpt lat="44.12024" lon="5.8033">
        <ele>1754.3</ele>
        <time>2011-07-09T12:52:41Z</time>
      </trkpt>
      <trkpt lat="44.11994" lon="5.80315">
        <ele>1749.1</ele>
        <time>2011-07-09T12:52:55.998Z</time>
      </trkpt>
      <trkpt lat="44.11977" lon="5.8029">
        <ele>1745.5</ele>
        <time>2011-07-09T12:53:00.997Z</time>
      </trkpt>
      <trkpt lat="44.11953" lon="5.80257">
        <ele>1742</ele>
        <time>2011-07-09T12:53:05.998Z</time>
      </trkpt>
      <trkpt lat="44.11929" lon="5.80228">
        <ele>1738.5</ele>
        <time>2011-07-09T12:53:10.995Z</time>
      </trkpt>
      <trkpt lat="44.11913" lon="5.80208">
        <ele>1735.6</ele>
        <time>2011-07-09T12:53:16Z</time>
      </trkpt>
      <trkpt lat="44.11916" lon="5.80171">
        <ele>1736.1</ele>
        <time>2011-07-09T12:53:36.001Z</time>
      </trkpt>
      <trkpt lat="44.11925" lon="5.80155">
        <ele>1737.6</ele>
        <time>2011-07-09T12:53:40.998Z</time>
      </trkpt>
      <trkpt lat="44.11936" lon="5.8014">
        <ele>1738.8</ele>
        <time>2011-07-09T12:53:46Z</time>
      </trkpt>
      <trkpt lat="44.11949" lon="5.80125">
        <ele>1739.7</ele>
        <time>2011-07-09T12:53:51.001Z</time>
      </trkpt>
      <trkpt lat="44.11969" lon="5.80112">
        <ele>1739</ele>
        <time>2011-07-09T12:53:56Z</time>
      </trkpt>
      <trkpt lat="44.1199" lon="5.80101">
        <ele>1736.8</ele>
        <time>2011-07-09T12:54:00.998Z</time>
      </trkpt>
      <trkpt lat="44.12015" lon="5.80091">
        <ele>1734.5</ele>
        <time>2011-07-09T12:54:05.998Z</time>
      </trkpt>
      <trkpt lat="44.1204" lon="5.80079">
        <ele>1731.5</ele>
        <time>2011-07-09T12:54:11.004Z</time>
      </trkpt>
      <trkpt lat="44.12069" lon="5.80067">
        <ele>1728.3</ele>
        <time>2011-07-09T12:54:15.995Z</time>
      </trkpt>
      <trkpt lat="44.12098" lon="5.80052">
        <ele>1725.9</ele>
        <time>2011-07-09T12:54:21.001Z</time>
      </trkpt>
      <trkpt lat="44.12109" lon="5.80026">
        <ele>1724.5</ele>
        <time>2011-07-09T12:54:25.997Z</time>
      </trkpt>
      <trkpt lat="44.12088" lon="5.79993">
        <ele>1723.4</ele>
        <time>2011-07-09T12:54:31.001Z</time>
      </trkpt>
      <trkpt lat="44.12067" lon="5.79954">
        <ele>1723.4</ele>
        <time>2011-07-09T12:54:35.997Z</time>
      </trkpt>
      <trkpt lat="44.12046" lon="5.79911">
        <ele>1724</ele>
        <time>2011-07-09T12:54:41Z</time>
      </trkpt>
      <trkpt lat="44.12024" lon="5.79869">
        <ele>1724.6</ele>
        <time>2011-07-09T12:54:46Z</time>
      </trkpt>
      <trkpt lat="44.12002" lon="5.79832">
        <ele>1724</ele>
        <time>2011-07-09T12:54:51Z</time>
      </trkpt>
      <trkpt lat="44.11976" lon="5.79798">
        <ele>1722.1</ele>
        <time>2011-07-09T12:54:55.998Z</time>
      </trkpt>
      <trkpt lat="44.1195" lon="5.79753">
        <ele>1721</ele>
        <time>2011-07-09T12:55:01.001Z</time>
      </trkpt>
      <trkpt lat="44.11927" lon="5.79708">
        <ele>1719.2</ele>
        <time>2011-07-09T12:55:06Z</time>
      </trkpt>
      <trkpt lat="44.11912" lon="5.79659">
        <ele>1716</ele>
        <time>2011-07-09T12:55:10.998Z</time>
      </trkpt>
      <trkpt lat="44.11906" lon="5.79609">
        <ele>1714.1</ele>
        <time>2011-07-09T12:55:16.001Z</time>
      </trkpt>
      <trkpt lat="44.11922" lon="5.79565">
        <ele>1712.2</ele>
        <time>2011-07-09T12:55:21Z</time>
      </trkpt>
      <trkpt lat="44.11951" lon="5.79531">
        <ele>1710.7</ele>
        <time>2011-07-09T12:55:26.001Z</time>
      </trkpt>
      <trkpt lat="44.11985" lon="5.79503">
        <ele>1708.6</ele>
        <time>2011-07-09T12:55:30.997Z</time>
      </trkpt>
      <trkpt lat="44.12022" lon="5.79476">
        <ele>1705.7</ele>
        <time>2011-07-09T12:55:35.998Z</time>
      </trkpt>
      <trkpt lat="44.12065" lon="5.79459">
        <ele>1701.1</ele>
        <time>2011-07-09T12:55:41.001Z</time>
      </trkpt>
      <trkpt lat="44.12111" lon="5.79448">
        <ele>1695.9</ele>
        <time>2011-07-09T12:55:45.998Z</time>
      </trkpt>
      <trkpt lat="44.12156" lon="5.79446">
        <ele>1693.3</ele>
        <time>2011-07-09T12:55:51.001Z</time>
      </trkpt>
      <trkpt lat="44.12194" lon="5.79457">
        <ele>1691.5</ele>
        <time>2011-07-09T12:55:55.998Z</time>
      </trkpt>
      <trkpt lat="44.12229" lon="5.79445">
        <ele>1692.4</ele>
        <time>2011-07-09T12:56:00.997Z</time>
      </trkpt>
      <trkpt lat="44.12245" lon="5.79403">
        <ele>1694.5</ele>
        <time>2011-07-09T12:56:06Z</time>
      </trkpt>
      <trkpt lat="44.12257" lon="5.79359">
        <ele>1696.8</ele>
        <time>2011-07-09T12:56:10.998Z</time>
      </trkpt>
      <trkpt lat="44.12271" lon="5.79313">
        <ele>1697.3</ele>
        <time>2011-07-09T12:56:15.998Z</time>
      </trkpt>
      <trkpt lat="44.12292" lon="5.79272">
        <ele>1696.4</ele>
        <time>2011-07-09T12:56:20.998Z</time>
      </trkpt>
      <trkpt lat="44.12319" lon="5.79232">
        <ele>1696</ele>
        <time>2011-07-09T12:56:25.998Z</time>
      </trkpt>
      <trkpt lat="44.12346" lon="5.7919">
        <ele>1696.2</ele>
        <time>2011-07-09T12:56:31.001Z</time>
      </trkpt>
      <trkpt lat="44.12364" lon="5.79155">
        <ele>1698</ele>
        <time>2011-07-09T12:56:36Z</time>
      </trkpt>
      <trkpt lat="44.1237" lon="5.79135">
        <ele>1699.6</ele>
        <time>2011-07-09T12:56:41.001Z</time>
      </trkpt>
      <trkpt lat="44.1234" lon="5.79103">
        <ele>1700.2</ele>
        <time>2011-07-09T12:59:31.001Z</time>
      </trkpt>
      <trkpt lat="44.12314" lon="5.79086">
        <ele>1703</ele>
        <time>2011-07-09T12:59:41Z</time>
      </trkpt>
      <trkpt lat="44.12291" lon="5.79066">
        <ele>1703</ele>
        <time>2011-07-09T12:59:51Z</time>
      </trkpt>
      <trkpt lat="44.12264" lon="5.79044">
        <ele>1702.6</ele>
        <time>2011-07-09T13:00:01Z</time>
      </trkpt>
      <trkpt lat="44.12246" lon="5.79035">
        <ele>1702.6</ele>
        <time>2011-07-09T13:00:06Z</time>
      </trkpt>
      <trkpt lat="44.12228" lon="5.79028">
        <ele>1702.6</ele>
        <time>2011-07-09T13:00:11Z</time>
      </trkpt>
      <trkpt lat="44.12209" lon="5.79022">
        <ele>1702.7</ele>
        <time>2011-07-09T13:00:16Z</time>
      </trkpt>
      <trkpt lat="44.1219" lon="5.79017">
        <ele>1702.8</ele>
        <time>2011-07-09T13:00:21Z</time>
      </trkpt>
      <trkpt lat="44.12171" lon="5.79011">
        <ele>1703.1</ele>
        <time>2011-07-09T13:00:26Z</time>
      </trkpt>
      <trkpt lat="44.12151" lon="5.79005">
        <ele>1703.5</ele>
        <time>2011-07-09T13:00:31Z</time>
      </trkpt>
      <trkpt lat="44.12132" lon="5.78996">
        <ele>1703.5</ele>
        <time>2011-07-09T13:00:35.998Z</time>
      </trkpt>
      <trkpt lat="44.12116" lon="5.78983">
        <ele>1702.8</ele>
        <time>2011-07-09T13:00:41Z</time>
      </trkpt>
      <trkpt lat="44.12103" lon="5.78965">
        <ele>1702.6</ele>
        <time>2011-07-09T13:00:46.001Z</time>
      </trkpt>
      <trkpt lat="44.12098" lon="5.78938">
        <ele>1700.9</ele>
        <time>2011-07-09T13:00:50.998Z</time>
      </trkpt>
      <trkpt lat="44.12098" lon="5.7891">
        <ele>1699.3</ele>
        <time>2011-07-09T13:00:56.001Z</time>
      </trkpt>
      <trkpt lat="44.12101" lon="5.78882">
        <ele>1699.3</ele>
        <time>2011-07-09T13:01:00.998Z</time>
      </trkpt>
      <trkpt lat="44.12106" lon="5.78851">
        <ele>1700.1</ele>
        <time>2011-07-09T13:01:06Z</time>
      </trkpt>
      <trkpt lat="44.12108" lon="5.78821">
        <ele>1700.4</ele>
        <time>2011-07-09T13:01:11Z</time>
      </trkpt>
      <trkpt lat="44.12114" lon="5.78789">
        <ele>1702.1</ele>
        <time>2011-07-09T13:01:15.998Z</time>
      </trkpt>
      <trkpt lat="44.12122" lon="5.78758">
        <ele>1702.9</ele>
        <time>2011-07-09T13:01:20.998Z</time>
      </trkpt>
      <trkpt lat="44.12131" lon="5.78726">
        <ele>1702.7</ele>
        <time>2011-07-09T13:01:26Z</time>
      </trkpt>
      <trkpt lat="44.12136" lon="5.78689">
        <ele>1702.8</ele>
        <time>2011-07-09T13:01:30.998Z</time>
      </trkpt>
      <trkpt lat="44.12126" lon="5.7865">
        <ele>1702.3</ele>
        <time>2011-07-09T13:01:36.001Z</time>
      </trkpt>
      <trkpt lat="44.12103" lon="5.78625">
        <ele>1701.4</ele>
        <time>2011-07-09T13:01:41.002Z</time>
      </trkpt>
      <trkpt lat="44.12073" lon="5.78618">
        <ele>1699.3</ele>
        <time>2011-07-09T13:01:46Z</time>
      </trkpt>
      <trkpt lat="44.12041" lon="5.78639">
        <ele>1697.5</ele>
        <time>2011-07-09T13:01:51.004Z</time>
      </trkpt>
      <trkpt lat="44.12015" lon="5.78674">
        <ele>1696.9</ele>
        <time>2011-07-09T13:01:56Z</time>
      </trkpt>
      <trkpt lat="44.11989" lon="5.78707">
        <ele>1696.2</ele>
        <time>2011-07-09T13:02:01Z</time>
      </trkpt>
      <trkpt lat="44.11961" lon="5.78741">
        <ele>1694.2</ele>
        <time>2011-07-09T13:02:06Z</time>
      </trkpt>
      <trkpt lat="44.11927" lon="5.78774">
        <ele>1692.2</ele>
        <time>2011-07-09T13:02:11Z</time>
      </trkpt>
      <trkpt lat="44.11888" lon="5.78804">
        <ele>1690.5</ele>
        <time>2011-07-09T13:02:16Z</time>
      </trkpt>
      <trkpt lat="44.11844" lon="5.78826">
        <ele>1689.7</ele>
        <time>2011-07-09T13:02:21Z</time>
      </trkpt>
      <trkpt lat="44.11796" lon="5.7885">
        <ele>1688.5</ele>
        <time>2011-07-09T13:02:26Z</time>
      </trkpt>
      <trkpt lat="44.11747" lon="5.78869">
        <ele>1686.6</ele>
        <time>2011-07-09T13:02:31Z</time>
      </trkpt>
      <trkpt lat="44.11699" lon="5.78876">
        <ele>1683.2</ele>
        <time>2011-07-09T13:02:36Z</time>
      </trkpt>
      <trkpt lat="44.1161" lon="5.78832">
        <ele>1680.1</ele>
        <time>2011-07-09T13:02:46Z</time>
      </trkpt>
      <trkpt lat="44.1159" lon="5.7877">
        <ele>1679.8</ele>
        <time>2011-07-09T13:02:51Z</time>
      </trkpt>
      <trkpt lat="44.11601" lon="5.78703">
        <ele>1675.9</ele>
        <time>2011-07-09T13:02:56Z</time>
      </trkpt>
      <trkpt lat="44.11624" lon="5.78651">
        <ele>1671.5</ele>
        <time>2011-07-09T13:03:01Z</time>
      </trkpt>
      <trkpt lat="44.11658" lon="5.78611">
        <ele>1667.6</ele>
        <time>2011-07-09T13:03:06Z</time>
      </trkpt>
      <trkpt lat="44.11711" lon="5.78573">
        <ele>1664.5</ele>
        <time>2011-07-09T13:03:11.001Z</time>
      </trkpt>
      <trkpt lat="44.11761" lon="5.78537">
        <ele>1661.3</ele>
        <time>2011-07-09T13:03:16.001Z</time>
      </trkpt>
      <trkpt lat="44.11818" lon="5.78499">
        <ele>1657.9</ele>
        <time>2011-07-09T13:03:21Z</time>
      </trkpt>
      <trkpt lat="44.1187" lon="5.78461">
        <ele>1653.5</ele>
        <time>2011-07-09T13:03:26Z</time>
      </trkpt>
      <trkpt lat="44.11907" lon="5.78426">
        <ele>1649</ele>
        <time>2011-07-09T13:03:31.001Z</time>
      </trkpt>
      <trkpt lat="44.11914" lon="5.7839">
        <ele>1643.3</ele>
        <time>2011-07-09T13:03:36Z</time>
      </trkpt>
      <trkpt lat="44.11875" lon="5.78361">
        <ele>1637</ele>
        <time>2011-07-09T13:03:41.001Z</time>
      </trkpt>
      <trkpt lat="44.1182" lon="5.78346">
        <ele>1632.7</ele>
        <time>2011-07-09T13:03:46.001Z</time>
      </trkpt>
      <trkpt lat="44.1176" lon="5.78331">
        <ele>1628.5</ele>
        <time>2011-07-09T13:03:50.998Z</time>
      </trkpt>
      <trkpt lat="44.11701" lon="5.7831">
        <ele>1624</ele>
        <time>2011-07-09T13:03:56.001Z</time>
      </trkpt>
      <trkpt lat="44.11647" lon="5.78285">
        <ele>1619</ele>
        <time>2011-07-09T13:04:01.001Z</time>
      </trkpt>
      <trkpt lat="44.11591" lon="5.7825">
        <ele>1612.9</ele>
        <time>2011-07-09T13:04:06Z</time>
      </trkpt>
      <trkpt lat="44.11549" lon="5.78213">
        <ele>1606.5</ele>
        <time>2011-07-09T13:04:11Z</time>
      </trkpt>
      <trkpt lat="44.1152" lon="5.78173">
        <ele>1600.6</ele>
        <time>2011-07-09T13:04:16Z</time>
      </trkpt>
      <trkpt lat="44.11492" lon="5.78129">
        <ele>1594.6</ele>
        <time>2011-07-09T13:04:21.001Z</time>
      </trkpt>
      <trkpt lat="44.11461" lon="5.7808">
        <ele>1588.5</ele>
        <time>2011-07-09T13:04:26.001Z</time>
      </trkpt>
      <trkpt lat="44.11419" lon="5.78048">
        <ele>1583.7</ele>
        <time>2011-07-09T13:04:31Z</time>
      </trkpt>
      <trkpt lat="44.1137" lon="5.78014">
        <ele>1580.1</ele>
        <time>2011-07-09T13:04:36Z</time>
      </trkpt>
      <trkpt lat="44.11323" lon="5.77981">
        <ele>1577.2</ele>
        <time>2011-07-09T13:04:41Z</time>
      </trkpt>
      <trkpt lat="44.11275" lon="5.77955">
        <ele>1577.4</ele>
        <time>2011-07-09T13:04:46.001Z</time>
      </trkpt>
      <trkpt lat="44.11232" lon="5.77945">
        <ele>1577.5</ele>
        <time>2011-07-09T13:04:50.998Z</time>
      </trkpt>
      <trkpt lat="44.11214" lon="5.77988">
        <ele>1576.2</ele>
        <time>2011-07-09T13:04:56Z</time>
      </trkpt>
      <trkpt lat="44.11234" lon="5.78063">
        <ele>1572.7</ele>
        <time>2011-07-09T13:05:01.004Z</time>
      </trkpt>
      <trkpt lat="44.1125" lon="5.78138">
        <ele>1568.1</ele>
        <time>2011-07-09T13:05:06Z</time>
      </trkpt>
      <trkpt lat="44.11248" lon="5.78202">
        <ele>1564</ele>
        <time>2011-07-09T13:05:11.002Z</time>
      </trkpt>
      <trkpt lat="44.11213" lon="5.78243">
        <ele>1559.7</ele>
        <time>2011-07-09T13:05:16.004Z</time>
      </trkpt>
      <trkpt lat="44.11157" lon="5.78233">
        <ele>1555.3</ele>
        <time>2011-07-09T13:05:20.998Z</time>
      </trkpt>
      <trkpt lat="44.11105" lon="5.78198">
        <ele>1550.2</ele>
        <time>2011-07-09T13:05:26.001Z</time>
      </trkpt>
      <trkpt lat="44.11049" lon="5.7818">
        <ele>1544.1</ele>
        <time>2011-07-09T13:05:31Z</time>
      </trkpt>
      <trkpt lat="44.10991" lon="5.782">
        <ele>1535.8</ele>
        <time>2011-07-09T13:05:36.001Z</time>
      </trkpt>
      <trkpt lat="44.10937" lon="5.78241">
        <ele>1527.6</ele>
        <time>2011-07-09T13:05:41.001Z</time>
      </trkpt>
      <trkpt lat="44.10878" lon="5.78278">
        <ele>1518.1</ele>
        <time>2011-07-09T13:05:45.998Z</time>
      </trkpt>
      <trkpt lat="44.10819" lon="5.7832">
        <ele>1508.5</ele>
        <time>2011-07-09T13:05:51.004Z</time>
      </trkpt>
      <trkpt lat="44.10769" lon="5.78359">
        <ele>1500.4</ele>
        <time>2011-07-09T13:05:55.998Z</time>
      </trkpt>
      <trkpt lat="44.10745" lon="5.78405">
        <ele>1494.2</ele>
        <time>2011-07-09T13:06:01.001Z</time>
      </trkpt>
      <trkpt lat="44.10767" lon="5.78471">
        <ele>1493.1</ele>
        <time>2011-07-09T13:06:06Z</time>
      </trkpt>
      <trkpt lat="44.108" lon="5.78556">
        <ele>1491.8</ele>
        <time>2011-07-09T13:06:10.998Z</time>
      </trkpt>
      <trkpt lat="44.10822" lon="5.78638">
        <ele>1490.9</ele>
        <time>2011-07-09T13:06:16.001Z</time>
      </trkpt>
      <trkpt lat="44.10794" lon="5.78579">
        <ele>1489.8</ele>
        <time>2011-07-09T13:06:31Z</time>
      </trkpt>
      <trkpt lat="44.10769" lon="5.78536">
        <ele>1489.1</ele>
        <time>2011-07-09T13:06:36Z</time>
      </trkpt>
      <trkpt lat="44.10725" lon="5.78494">
        <ele>1488</ele>
        <time>2011-07-09T13:06:41.001Z</time>
      </trkpt>
      <trkpt lat="44.10672" lon="5.78456">
        <ele>1486.9</ele>
        <time>2011-07-09T13:06:46.001Z</time>
      </trkpt>
      <trkpt lat="44.10615" lon="5.78422">
        <ele>1483.6</ele>
        <time>2011-07-09T13:06:51.002Z</time>
      </trkpt>
      <trkpt lat="44.1056" lon="5.78379">
        <ele>1477.9</ele>
        <time>2011-07-09T13:06:55.998Z</time>
      </trkpt>
      <trkpt lat="44.10515" lon="5.78328">
        <ele>1469.2</ele>
        <time>2011-07-09T13:07:01.001Z</time>
      </trkpt>
      <trkpt lat="44.10477" lon="5.78313">
        <ele>1463.4</ele>
        <time>2011-07-09T13:07:06Z</time>
      </trkpt>
      <trkpt lat="44.10471" lon="5.7835">
        <ele>1458.2</ele>
        <time>2011-07-09T13:07:11Z</time>
      </trkpt>
      <trkpt lat="44.10493" lon="5.78404">
        <ele>1452.1</ele>
        <time>2011-07-09T13:07:15.997Z</time>
      </trkpt>
      <trkpt lat="44.10495" lon="5.78443">
        <ele>1446.8</ele>
        <time>2011-07-09T13:07:21.001Z</time>
      </trkpt>
      <trkpt lat="44.10456" lon="5.78456">
        <ele>1442.4</ele>
        <time>2011-07-09T13:07:25.998Z</time>
      </trkpt>
      <trkpt lat="44.10405" lon="5.78455">
        <ele>1440.1</ele>
        <time>2011-07-09T13:07:31.002Z</time>
      </trkpt>
      <trkpt lat="44.10362" lon="5.78418">
        <ele>1439.2</ele>
        <time>2011-07-09T13:07:35.998Z</time>
      </trkpt>
      <trkpt lat="44.10337" lon="5.78366">
        <ele>1437.4</ele>
        <time>2011-07-09T13:07:41.005Z</time>
      </trkpt>
      <trkpt lat="44.10319" lon="5.78337">
        <ele>1436.2</ele>
        <time>2011-07-09T13:07:45.998Z</time>
      </trkpt>
      <trkpt lat="44.1031" lon="5.7837">
        <ele>1433.7</ele>
        <time>2011-07-09T13:07:51.001Z</time>
      </trkpt>
      <trkpt lat="44.10306" lon="5.78423">
        <ele>1431.4</ele>
        <time>2011-07-09T13:07:56.001Z</time>
      </trkpt>
      <trkpt lat="44.10309" lon="5.78476">
        <ele>1429.5</ele>
        <time>2011-07-09T13:08:01Z</time>
      </trkpt>
      <trkpt lat="44.10323" lon="5.78517">
        <ele>1429.9</ele>
        <time>2011-07-09T13:08:06Z</time>
      </trkpt>
      <trkpt lat="44.10335" lon="5.78552">
        <ele>1430.7</ele>
        <time>2011-07-09T13:08:11.001Z</time>
      </trkpt>
      <trkpt lat="44.10308" lon="5.78528">
        <ele>1428.1</ele>
        <time>2011-07-09T13:08:21.002Z</time>
      </trkpt>
      <trkpt lat="44.10278" lon="5.78498">
        <ele>1424.6</ele>
        <time>2011-07-09T13:08:26.001Z</time>
      </trkpt>
      <trkpt lat="44.10244" lon="5.78468">
        <ele>1421.9</ele>
        <time>2011-07-09T13:08:30.998Z</time>
      </trkpt>
      <trkpt lat="44.102" lon="5.78438">
        <ele>1418.3</ele>
        <time>2011-07-09T13:08:35.995Z</time>
      </trkpt>
      <trkpt lat="44.10144" lon="5.78421">
        <ele>1415.1</ele>
        <time>2011-07-09T13:08:41.001Z</time>
      </trkpt>
      <trkpt lat="44.1008" lon="5.78423">
        <ele>1410.6</ele>
        <time>2011-07-09T13:08:46.001Z</time>
      </trkpt>
      <trkpt lat="44.1001" lon="5.7844">
        <ele>1403.4</ele>
        <time>2011-07-09T13:08:51Z</time>
      </trkpt>
      <trkpt lat="44.09938" lon="5.78445">
        <ele>1395.6</ele>
        <time>2011-07-09T13:08:56.001Z</time>
      </trkpt>
      <trkpt lat="44.09875" lon="5.78425">
        <ele>1388.8</ele>
        <time>2011-07-09T13:09:00.998Z</time>
      </trkpt>
      <trkpt lat="44.09825" lon="5.78374">
        <ele>1381.6</ele>
        <time>2011-07-09T13:09:06.001Z</time>
      </trkpt>
      <trkpt lat="44.09797" lon="5.78309">
        <ele>1377.4</ele>
        <time>2011-07-09T13:09:11Z</time>
      </trkpt>
      <trkpt lat="44.09789" lon="5.78291">
        <ele>1374.1</ele>
        <time>2011-07-09T13:09:16Z</time>
      </trkpt>
      <trkpt lat="44.098" lon="5.78352">
        <ele>1371.4</ele>
        <time>2011-07-09T13:09:21.001Z</time>
      </trkpt>
      <trkpt lat="44.0981" lon="5.78432">
        <ele>1367.7</ele>
        <time>2011-07-09T13:09:25.997Z</time>
      </trkpt>
      <trkpt lat="44.09804" lon="5.78517">
        <ele>1366.4</ele>
        <time>2011-07-09T13:09:31Z</time>
      </trkpt>
      <trkpt lat="44.09778" lon="5.78603">
        <ele>1363.1</ele>
        <time>2011-07-09T13:09:36Z</time>
      </trkpt>
      <trkpt lat="44.09744" lon="5.78693">
        <ele>1357.5</ele>
        <time>2011-07-09T13:09:41Z</time>
      </trkpt>
      <trkpt lat="44.09715" lon="5.78769">
        <ele>1356.7</ele>
        <time>2011-07-09T13:09:46Z</time>
      </trkpt>
      <trkpt lat="44.09666" lon="5.78815">
        <ele>1356.8</ele>
        <time>2011-07-09T13:09:51.001Z</time>
      </trkpt>
      <trkpt lat="44.0962" lon="5.78844">
        <ele>1354.6</ele>
        <time>2011-07-09T13:09:56.001Z</time>
      </trkpt>
      <trkpt lat="44.096" lon="5.78812">
        <ele>1351.8</ele>
        <time>2011-07-09T13:10:00.994Z</time>
      </trkpt>
      <trkpt lat="44.0962" lon="5.78755">
        <ele>1348.5</ele>
        <time>2011-07-09T13:10:06Z</time>
      </trkpt>
      <trkpt lat="44.09648" lon="5.78714">
        <ele>1345</ele>
        <time>2011-07-09T13:10:11.001Z</time>
      </trkpt>
      <trkpt lat="44.09576" lon="5.78716">
        <ele>1341.2</ele>
        <time>2011-07-09T13:10:21Z</time>
      </trkpt>
      <trkpt lat="44.09512" lon="5.7874">
        <ele>1338.3</ele>
        <time>2011-07-09T13:10:26.001Z</time>
      </trkpt>
      <trkpt lat="44.09454" lon="5.78783">
        <ele>1334.9</ele>
        <time>2011-07-09T13:10:30.997Z</time>
      </trkpt>
      <trkpt lat="44.09433" lon="5.78794">
        <ele>1330.3</ele>
        <time>2011-07-09T13:10:35.998Z</time>
      </trkpt>
      <trkpt lat="44.09432" lon="5.78746">
        <ele>1324.6</ele>
        <time>2011-07-09T13:10:40.998Z</time>
      </trkpt>
      <trkpt lat="44.09417" lon="5.78713">
        <ele>1319.4</ele>
        <time>2011-07-09T13:10:46.001Z</time>
      </trkpt>
      <trkpt lat="44.09386" lon="5.78756">
        <ele>1316</ele>
        <time>2011-07-09T13:10:51Z</time>
      </trkpt>
      <trkpt lat="44.09369" lon="5.78823">
        <ele>1312.2</ele>
        <time>2011-07-09T13:10:56.002Z</time>
      </trkpt>
      <trkpt lat="44.09357" lon="5.78869">
        <ele>1306.9</ele>
        <time>2011-07-09T13:11:00.999Z</time>
      </trkpt>
      <trkpt lat="44.09334" lon="5.78831">
        <ele>1299.9</ele>
        <time>2011-07-09T13:11:05.999Z</time>
      </trkpt>
      <trkpt lat="44.09322" lon="5.78759">
        <ele>1293.3</ele>
        <time>2011-07-09T13:11:10.997Z</time>
      </trkpt>
      <trkpt lat="44.09309" lon="5.78699">
        <ele>1288.7</ele>
        <time>2011-07-09T13:11:16.002Z</time>
      </trkpt>
      <trkpt lat="44.0928" lon="5.78723">
        <ele>1286.1</ele>
        <time>2011-07-09T13:11:21Z</time>
      </trkpt>
      <trkpt lat="44.09264" lon="5.78786">
        <ele>1282.2</ele>
        <time>2011-07-09T13:11:26Z</time>
      </trkpt>
      <trkpt lat="44.09251" lon="5.78857">
        <ele>1278.3</ele>
        <time>2011-07-09T13:11:31.002Z</time>
      </trkpt>
      <trkpt lat="44.09231" lon="5.78938">
        <ele>1274.2</ele>
        <time>2011-07-09T13:11:35.996Z</time>
      </trkpt>
      <trkpt lat="44.09218" lon="5.79014">
        <ele>1269.4</ele>
        <time>2011-07-09T13:11:40.999Z</time>
      </trkpt>
      <trkpt lat="44.09242" lon="5.79075">
        <ele>1265</ele>
        <time>2011-07-09T13:11:45.997Z</time>
      </trkpt>
      <trkpt lat="44.09296" lon="5.79102">
        <ele>1261.3</ele>
        <time>2011-07-09T13:11:50.997Z</time>
      </trkpt>
      <trkpt lat="44.09349" lon="5.7911">
        <ele>1256.5</ele>
        <time>2011-07-09T13:11:55.997Z</time>
      </trkpt>
      <trkpt lat="44.09378" lon="5.79112">
        <ele>1253.7</ele>
        <time>2011-07-09T13:12:01Z</time>
      </trkpt>
      <trkpt lat="44.09363" lon="5.7913">
        <ele>1250.5</ele>
        <time>2011-07-09T13:12:06.002Z</time>
      </trkpt>
      <trkpt lat="44.0933" lon="5.79151">
        <ele>1251</ele>
        <time>2011-07-09T13:12:11.000Z</time>
      </trkpt>
      <trkpt lat="44.09289" lon="5.79176">
        <ele>1251.3</ele>
        <time>2011-07-09T13:12:16Z</time>
      </trkpt>
      <trkpt lat="44.09231" lon="5.7921">
        <ele>1251.1</ele>
        <time>2011-07-09T13:12:21.002Z</time>
      </trkpt>
      <trkpt lat="44.09154" lon="5.79256">
        <ele>1249.1</ele>
        <time>2011-07-09T13:12:26.002Z</time>
      </trkpt>
      <trkpt lat="44.09081" lon="5.7929">
        <ele>1245.2</ele>
        <time>2011-07-09T13:12:31Z</time>
      </trkpt>
      <trkpt lat="44.09037" lon="5.7931">
        <ele>1240.4</ele>
        <time>2011-07-09T13:12:36.000Z</time>
      </trkpt>
      <trkpt lat="44.09055" lon="5.79299">
        <ele>1247.4</ele>
        <time>2011-07-09T13:13:26.002Z</time>
      </trkpt>
      <trkpt lat="44.09074" lon="5.79293">
        <ele>1250.4</ele>
        <time>2011-07-09T13:13:41.002Z</time>
      </trkpt>
      <trkpt lat="44.09104" lon="5.79291">
        <ele>1252.5</ele>
        <time>2011-07-09T13:13:51Z</time>
      </trkpt>
      <trkpt lat="44.09128" lon="5.79291">
        <ele>1255.5</ele>
        <time>2011-07-09T13:13:56Z</time>
      </trkpt>
      <trkpt lat="44.09153" lon="5.79292">
        <ele>1257.5</ele>
        <time>2011-07-09T13:14:01Z</time>
      </trkpt>
      <trkpt lat="44.09181" lon="5.79293">
        <ele>1259.2</ele>
        <time>2011-07-09T13:14:05.997Z</time>
      </trkpt>
      <trkpt lat="44.09207" lon="5.79289">
        <ele>1258.8</ele>
        <time>2011-07-09T13:14:11.002Z</time>
      </trkpt>
      <trkpt lat="44.09235" lon="5.79286">
        <ele>1256</ele>
        <time>2011-07-09T13:14:16Z</time>
      </trkpt>
      <trkpt lat="44.09262" lon="5.79281">
        <ele>1252.9</ele>
        <time>2011-07-09T13:14:21.002Z</time>
      </trkpt>
      <trkpt lat="44.09283" lon="5.79275">
        <ele>1250.6</ele>
        <time>2011-07-09T13:14:25.999Z</time>
      </trkpt>
      <trkpt lat="44.09305" lon="5.79268">
        <ele>1248.4</ele>
        <time>2011-07-09T13:14:31Z</time>
      </trkpt>
      <trkpt lat="44.09331" lon="5.79262">
        <ele>1246.9</ele>
        <time>2011-07-09T13:14:36Z</time>
      </trkpt>
      <trkpt lat="44.09353" lon="5.79245">
        <ele>1246.3</ele>
        <time>2011-07-09T13:14:41Z</time>
      </trkpt>
      <trkpt lat="44.09374" lon="5.79228">
        <ele>1246.1</ele>
        <time>2011-07-09T13:14:46Z</time>
      </trkpt>
      <trkpt lat="44.09391" lon="5.79211">
        <ele>1245.8</ele>
        <time>2011-07-09T13:14:51Z</time>
      </trkpt>
      <trkpt lat="44.09409" lon="5.79198">
        <ele>1245.3</ele>
        <time>2011-07-09T13:14:56.000Z</time>
      </trkpt>
      <trkpt lat="44.09425" lon="5.79186">
        <ele>1244.4</ele>
        <time>2011-07-09T13:15:01.000Z</time>
      </trkpt>
      <trkpt lat="44.09458" lon="5.79175">
        <ele>1245.1</ele>
        <time>2011-07-09T13:15:11Z</time>
      </trkpt>
      <trkpt lat="44.09494" lon="5.79176">
        <ele>1253.2</ele>
        <time>2011-07-09T13:15:21Z</time>
      </trkpt>
      <trkpt lat="44.09526" lon="5.79168">
        <ele>1269</ele>
        <time>2011-07-09T13:15:31.000Z</time>
      </trkpt>
      <trkpt lat="44.09559" lon="5.79166">
        <ele>1277</ele>
        <time>2011-07-09T13:15:41Z</time>
      </trkpt>
      <trkpt lat="44.09593" lon="5.79173">
        <ele>1280.2</ele>
        <time>2011-07-09T13:15:51Z</time>
      </trkpt>
      <trkpt lat="44.09611" lon="5.79177">
        <ele>1280.5</ele>
        <time>2011-07-09T13:15:55.999Z</time>
      </trkpt>
      <trkpt lat="44.0963" lon="5.7918">
        <ele>1280.2</ele>
        <time>2011-07-09T13:16:01.002Z</time>
      </trkpt>
      <trkpt lat="44.09648" lon="5.79183">
        <ele>1279.1</ele>
        <time>2011-07-09T13:16:06Z</time>
      </trkpt>
      <trkpt lat="44.09675" lon="5.79194">
        <ele>1272.9</ele>
        <time>2011-07-09T13:16:16Z</time>
      </trkpt>
      <trkpt lat="44.09684" lon="5.79219">
        <ele>1230.8</ele>
        <time>2011-07-09T13:17:20.999Z</time>
      </trkpt>
      <trkpt lat="44.09691" lon="5.792">
        <ele>1240.8</ele>
        <time>2011-07-09T14:35:31Z</time>
      </trkpt>
      <trkpt lat="44.09659" lon="5.7919">
        <ele>1263.1</ele>
        <time>2011-07-09T14:36:06Z</time>
      </trkpt>
      <trkpt lat="44.09623" lon="5.79185">
        <ele>1269.7</ele>
        <time>2011-07-09T14:36:16Z</time>
      </trkpt>
      <trkpt lat="44.09606" lon="5.7918">
        <ele>1265.2</ele>
        <time>2011-07-09T14:36:21Z</time>
      </trkpt>
      <trkpt lat="44.09573" lon="5.79171">
        <ele>1250.9</ele>
        <time>2011-07-09T14:36:31Z</time>
      </trkpt>
      <trkpt lat="44.0954" lon="5.79167">
        <ele>1238.9</ele>
        <time>2011-07-09T14:36:41Z</time>
      </trkpt>
      <trkpt lat="44.09507" lon="5.79172">
        <ele>1235.4</ele>
        <time>2011-07-09T14:36:51Z</time>
      </trkpt>
      <trkpt lat="44.09477" lon="5.79168">
        <ele>1235</ele>
        <time>2011-07-09T14:37:01Z</time>
      </trkpt>
      <trkpt lat="44.09442" lon="5.7917">
        <ele>1233.7</ele>
        <time>2011-07-09T14:37:11Z</time>
      </trkpt>
      <trkpt lat="44.09426" lon="5.7918">
        <ele>1232.8</ele>
        <time>2011-07-09T14:37:16.002Z</time>
      </trkpt>
      <trkpt lat="44.09399" lon="5.79205">
        <ele>1230.7</ele>
        <time>2011-07-09T14:37:26Z</time>
      </trkpt>
      <trkpt lat="44.09386" lon="5.79222">
        <ele>1232.4</ele>
        <time>2011-07-09T14:37:31Z</time>
      </trkpt>
      <trkpt lat="44.09373" lon="5.7924">
        <ele>1236</ele>
        <time>2011-07-09T14:37:36Z</time>
      </trkpt>
      <trkpt lat="44.09358" lon="5.79254">
        <ele>1241.9</ele>
        <time>2011-07-09T14:37:41Z</time>
      </trkpt>
      <trkpt lat="44.0932" lon="5.79267">
        <ele>1245.2</ele>
        <time>2011-07-09T14:37:56Z</time>
      </trkpt>
      <trkpt lat="44.0929" lon="5.79275">
        <ele>1247.2</ele>
        <time>2011-07-09T14:38:06Z</time>
      </trkpt>
      <trkpt lat="44.0926" lon="5.79283">
        <ele>1243.2</ele>
        <time>2011-07-09T14:38:16Z</time>
      </trkpt>
      <trkpt lat="44.09218" lon="5.79289">
        <ele>1241.6</ele>
        <time>2011-07-09T14:38:31Z</time>
      </trkpt>
      <trkpt lat="44.09177" lon="5.79296">
        <ele>1251.5</ele>
        <time>2011-07-09T14:38:46Z</time>
      </trkpt>
      <trkpt lat="44.09156" lon="5.79298">
        <ele>1255.4</ele>
        <time>2011-07-09T14:38:56Z</time>
      </trkpt>
      <trkpt lat="44.09133" lon="5.79299">
        <ele>1252.6</ele>
        <time>2011-07-09T14:39:06Z</time>
      </trkpt>
      <trkpt lat="44.09108" lon="5.79299">
        <ele>1254.6</ele>
        <time>2011-07-09T14:39:16Z</time>
      </trkpt>
      <trkpt lat="44.09081" lon="5.79299">
        <ele>1255.8</ele>
        <time>2011-07-09T14:39:26Z</time>
      </trkpt>
      <trkpt lat="44.09061" lon="5.79299">
        <ele>1252.1</ele>
        <time>2011-07-09T14:39:36Z</time>
      </trkpt>
      <trkpt lat="44.09042" lon="5.79293">
        <ele>1245.7</ele>
        <time>2011-07-09T14:39:46Z</time>
      </trkpt>
      <trkpt lat="44.09" lon="5.79286">
        <ele>1246.2</ele>
        <time>2011-07-09T14:41:40.997Z</time>
      </trkpt>
      <trkpt lat="44.08972" lon="5.79262">
        <ele>1243.7</ele>
        <time>2011-07-09T14:41:46.002Z</time>
      </trkpt>
      <trkpt lat="44.08946" lon="5.79218">
        <ele>1244.2</ele>
        <time>2011-07-09T14:41:51Z</time>
      </trkpt>
      <trkpt lat="44.08921" lon="5.7917">
        <ele>1244.7</ele>
        <time>2011-07-09T14:41:56Z</time>
      </trkpt>
      <trkpt lat="44.08894" lon="5.79114">
        <ele>1245.2</ele>
        <time>2011-07-09T14:42:01.002Z</time>
      </trkpt>
      <trkpt lat="44.08881" lon="5.79039">
        <ele>1241.7</ele>
        <time>2011-07-09T14:42:06.002Z</time>
      </trkpt>
      <trkpt lat="44.08886" lon="5.78959">
        <ele>1227.2</ele>
        <time>2011-07-09T14:42:11Z</time>
      </trkpt>
      <trkpt lat="44.08908" lon="5.78878">
        <ele>1211.6</ele>
        <time>2011-07-09T14:42:16Z</time>
      </trkpt>
      <trkpt lat="44.08945" lon="5.78807">
        <ele>1195.3</ele>
        <time>2011-07-09T14:42:21Z</time>
      </trkpt>
      <trkpt lat="44.08959" lon="5.7875">
        <ele>1160.9</ele>
        <time>2011-07-09T14:42:31Z</time>
      </trkpt>
      <trkpt lat="44.08912" lon="5.78764">
        <ele>1163.2</ele>
        <time>2011-07-09T14:42:36Z</time>
      </trkpt>
      <trkpt lat="44.08852" lon="5.78807">
        <ele>1175</ele>
        <time>2011-07-09T14:42:41Z</time>
      </trkpt>
      <trkpt lat="44.08788" lon="5.78844">
        <ele>1186.1</ele>
        <time>2011-07-09T14:42:46Z</time>
      </trkpt>
      <trkpt lat="44.08717" lon="5.78858">
        <ele>1193.6</ele>
        <time>2011-07-09T14:42:51Z</time>
      </trkpt>
      <trkpt lat="44.08643" lon="5.78858">
        <ele>1195.3</ele>
        <time>2011-07-09T14:42:56Z</time>
      </trkpt>
      <trkpt lat="44.08569" lon="5.78856">
        <ele>1195.2</ele>
        <time>2011-07-09T14:43:01Z</time>
      </trkpt>
      <trkpt lat="44.08494" lon="5.78856">
        <ele>1195.1</ele>
        <time>2011-07-09T14:43:06Z</time>
      </trkpt>
      <trkpt lat="44.08421" lon="5.78855">
        <ele>1195.4</ele>
        <time>2011-07-09T14:43:11Z</time>
      </trkpt>
      <trkpt lat="44.08353" lon="5.78839">
        <ele>1189.7</ele>
        <time>2011-07-09T14:43:16Z</time>
      </trkpt>
      <trkpt lat="44.08289" lon="5.78797">
        <ele>1178.9</ele>
        <time>2011-07-09T14:43:21Z</time>
      </trkpt>
      <trkpt lat="44.08226" lon="5.7875">
        <ele>1166.8</ele>
        <time>2011-07-09T14:43:26Z</time>
      </trkpt>
      <trkpt lat="44.08183" lon="5.78694">
        <ele>1153.4</ele>
        <time>2011-07-09T14:43:31Z</time>
      </trkpt>
      <trkpt lat="44.08147" lon="5.78663">
        <ele>1144.6</ele>
        <time>2011-07-09T14:43:36Z</time>
      </trkpt>
      <trkpt lat="44.08134" lon="5.78704">
        <ele>1139.3</ele>
        <time>2011-07-09T14:43:41Z</time>
      </trkpt>
      <trkpt lat="44.08151" lon="5.78764">
        <ele>1133.9</ele>
        <time>2011-07-09T14:43:46Z</time>
      </trkpt>
      <trkpt lat="44.08175" lon="5.78826">
        <ele>1126.4</ele>
        <time>2011-07-09T14:43:50.997Z</time>
      </trkpt>
      <trkpt lat="44.0821" lon="5.78887">
        <ele>1117</ele>
        <time>2011-07-09T14:43:56Z</time>
      </trkpt>
      <trkpt lat="44.08253" lon="5.78943">
        <ele>1110.9</ele>
        <time>2011-07-09T14:44:01Z</time>
      </trkpt>
      <trkpt lat="44.08286" lon="5.78987">
        <ele>1114.1</ele>
        <time>2011-07-09T14:44:06Z</time>
      </trkpt>
      <trkpt lat="44.08281" lon="5.79017">
        <ele>1117</ele>
        <time>2011-07-09T14:44:11Z</time>
      </trkpt>
      <trkpt lat="44.08251" lon="5.79007">
        <ele>1118.4</ele>
        <time>2011-07-09T14:44:15.999Z</time>
      </trkpt>
      <trkpt lat="44.08206" lon="5.78982">
        <ele>1118.4</ele>
        <time>2011-07-09T14:44:21Z</time>
      </trkpt>
      <trkpt lat="44.08155" lon="5.78964">
        <ele>1116.4</ele>
        <time>2011-07-09T14:44:26Z</time>
      </trkpt>
      <trkpt lat="44.08095" lon="5.78946">
        <ele>1115.7</ele>
        <time>2011-07-09T14:44:31Z</time>
      </trkpt>
      <trkpt lat="44.08032" lon="5.78926">
        <ele>1112.1</ele>
        <time>2011-07-09T14:44:36Z</time>
      </trkpt>
      <trkpt lat="44.07968" lon="5.78907">
        <ele>1107.2</ele>
        <time>2011-07-09T14:44:41Z</time>
      </trkpt>
      <trkpt lat="44.07898" lon="5.78886">
        <ele>1103</ele>
        <time>2011-07-09T14:44:46Z</time>
      </trkpt>
      <trkpt lat="44.07834" lon="5.78865">
        <ele>1098.7</ele>
        <time>2011-07-09T14:44:50.997Z</time>
      </trkpt>
      <trkpt lat="44.0778" lon="5.78829">
        <ele>1096.3</ele>
        <time>2011-07-09T14:44:55.997Z</time>
      </trkpt>
      <trkpt lat="44.07724" lon="5.78792">
        <ele>1092.1</ele>
        <time>2011-07-09T14:45:01.002Z</time>
      </trkpt>
      <trkpt lat="44.07695" lon="5.78812">
        <ele>1085.6</ele>
        <time>2011-07-09T14:45:05.997Z</time>
      </trkpt>
      <trkpt lat="44.07698" lon="5.78894">
        <ele>1081.2</ele>
        <time>2011-07-09T14:45:11Z</time>
      </trkpt>
      <trkpt lat="44.07676" lon="5.78958">
        <ele>1078.3</ele>
        <time>2011-07-09T14:45:16Z</time>
      </trkpt>
      <trkpt lat="44.0763" lon="5.78957">
        <ele>1073</ele>
        <time>2011-07-09T14:45:20.999Z</time>
      </trkpt>
      <trkpt lat="44.07579" lon="5.78941">
        <ele>1068.7</ele>
        <time>2011-07-09T14:45:26Z</time>
      </trkpt>
      <trkpt lat="44.07528" lon="5.78944">
        <ele>1063.9</ele>
        <time>2011-07-09T14:45:31Z</time>
      </trkpt>
      <trkpt lat="44.07508" lon="5.79015">
        <ele>1059.9</ele>
        <time>2011-07-09T14:45:36Z</time>
      </trkpt>
      <trkpt lat="44.0752" lon="5.79096">
        <ele>1054.6</ele>
        <time>2011-07-09T14:45:41Z</time>
      </trkpt>
      <trkpt lat="44.07536" lon="5.79182">
        <ele>1052.3</ele>
        <time>2011-07-09T14:45:46Z</time>
      </trkpt>
      <trkpt lat="44.07549" lon="5.79278">
        <ele>1050.5</ele>
        <time>2011-07-09T14:45:51Z</time>
      </trkpt>
      <trkpt lat="44.07555" lon="5.79376">
        <ele>1049.8</ele>
        <time>2011-07-09T14:45:56Z</time>
      </trkpt>
      <trkpt lat="44.0755" lon="5.79458">
        <ele>1048.3</ele>
        <time>2011-07-09T14:46:01Z</time>
      </trkpt>
      <trkpt lat="44.07531" lon="5.79492">
        <ele>1046.6</ele>
        <time>2011-07-09T14:46:06Z</time>
      </trkpt>
      <trkpt lat="44.07493" lon="5.79457">
        <ele>1044.1</ele>
        <time>2011-07-09T14:46:11Z</time>
      </trkpt>
      <trkpt lat="44.07471" lon="5.79396">
        <ele>1041.1</ele>
        <time>2011-07-09T14:46:16Z</time>
      </trkpt>
      <trkpt lat="44.0744" lon="5.79337">
        <ele>1037.3</ele>
        <time>2011-07-09T14:46:21Z</time>
      </trkpt>
      <trkpt lat="44.07408" lon="5.79281">
        <ele>1033.8</ele>
        <time>2011-07-09T14:46:26.002Z</time>
      </trkpt>
      <trkpt lat="44.07373" lon="5.79224">
        <ele>1030.2</ele>
        <time>2011-07-09T14:46:30.997Z</time>
      </trkpt>
      <trkpt lat="44.07322" lon="5.79179">
        <ele>1027.1</ele>
        <time>2011-07-09T14:46:36Z</time>
      </trkpt>
      <trkpt lat="44.07261" lon="5.79147">
        <ele>1022.1</ele>
        <time>2011-07-09T14:46:41Z</time>
      </trkpt>
      <trkpt lat="44.07198" lon="5.79112">
        <ele>1017.4</ele>
        <time>2011-07-09T14:46:46Z</time>
      </trkpt>
      <trkpt lat="44.07138" lon="5.7906">
        <ele>1012.3</ele>
        <time>2011-07-09T14:46:51Z</time>
      </trkpt>
      <trkpt lat="44.07081" lon="5.79007">
        <ele>1006.4</ele>
        <time>2011-07-09T14:46:56Z</time>
      </trkpt>
      <trkpt lat="44.07023" lon="5.78954">
        <ele>1001.3</ele>
        <time>2011-07-09T14:47:00.997Z</time>
      </trkpt>
      <trkpt lat="44.06969" lon="5.78893">
        <ele>995.3</ele>
        <time>2011-07-09T14:47:06.002Z</time>
      </trkpt>
      <trkpt lat="44.06928" lon="5.7883">
        <ele>989</ele>
        <time>2011-07-09T14:47:11.002Z</time>
      </trkpt>
      <trkpt lat="44.06902" lon="5.78775">
        <ele>976.7</ele>
        <time>2011-07-09T14:47:16Z</time>
      </trkpt>
      <trkpt lat="44.06875" lon="5.78779">
        <ele>963</ele>
        <time>2011-07-09T14:47:21Z</time>
      </trkpt>
      <trkpt lat="44.06879" lon="5.78851">
        <ele>951.7</ele>
        <time>2011-07-09T14:47:25.997Z</time>
      </trkpt>
      <trkpt lat="44.06897" lon="5.78929">
        <ele>941.2</ele>
        <time>2011-07-09T14:47:31.000Z</time>
      </trkpt>
      <trkpt lat="44.06923" lon="5.7901">
        <ele>930.4</ele>
        <time>2011-07-09T14:47:36Z</time>
      </trkpt>
      <trkpt lat="44.06949" lon="5.79099">
        <ele>922.6</ele>
        <time>2011-07-09T14:47:41Z</time>
      </trkpt>
      <trkpt lat="44.06973" lon="5.79195">
        <ele>927</ele>
        <time>2011-07-09T14:47:46Z</time>
      </trkpt>
      <trkpt lat="44.06999" lon="5.7929">
        <ele>935.1</ele>
        <time>2011-07-09T14:47:51Z</time>
      </trkpt>
      <trkpt lat="44.0703" lon="5.79359">
        <ele>941.3</ele>
        <time>2011-07-09T14:47:56.000Z</time>
      </trkpt>
      <trkpt lat="44.07042" lon="5.79404">
        <ele>945.4</ele>
        <time>2011-07-09T14:48:01Z</time>
      </trkpt>
      <trkpt lat="44.07017" lon="5.79399">
        <ele>946.1</ele>
        <time>2011-07-09T14:48:06Z</time>
      </trkpt>
      <trkpt lat="44.06989" lon="5.79365">
        <ele>947.1</ele>
        <time>2011-07-09T14:48:11.000Z</time>
      </trkpt>
      <trkpt lat="44.06958" lon="5.79331">
        <ele>947.9</ele>
        <time>2011-07-09T14:48:15.999Z</time>
      </trkpt>
      <trkpt lat="44.0692" lon="5.79291">
        <ele>948.2</ele>
        <time>2011-07-09T14:48:21Z</time>
      </trkpt>
      <trkpt lat="44.06875" lon="5.79254">
        <ele>947.9</ele>
        <time>2011-07-09T14:48:25.997Z</time>
      </trkpt>
      <trkpt lat="44.06823" lon="5.79223">
        <ele>947.2</ele>
        <time>2011-07-09T14:48:30.997Z</time>
      </trkpt>
      <trkpt lat="44.06768" lon="5.79192">
        <ele>944</ele>
        <time>2011-07-09T14:48:36Z</time>
      </trkpt>
      <trkpt lat="44.06711" lon="5.79159">
        <ele>938.3</ele>
        <time>2011-07-09T14:48:40.999Z</time>
      </trkpt>
      <trkpt lat="44.06649" lon="5.79124">
        <ele>933</ele>
        <time>2011-07-09T14:48:46Z</time>
      </trkpt>
      <trkpt lat="44.06586" lon="5.79084">
        <ele>926.9</ele>
        <time>2011-07-09T14:48:51Z</time>
      </trkpt>
      <trkpt lat="44.06523" lon="5.79039">
        <ele>922.4</ele>
        <time>2011-07-09T14:48:56Z</time>
      </trkpt>
      <trkpt lat="44.06472" lon="5.78993">
        <ele>918.6</ele>
        <time>2011-07-09T14:49:01Z</time>
      </trkpt>
      <trkpt lat="44.06461" lon="5.78931">
        <ele>913.4</ele>
        <time>2011-07-09T14:49:06Z</time>
      </trkpt>
      <trkpt lat="44.06464" lon="5.78859">
        <ele>906.8</ele>
        <time>2011-07-09T14:49:10.997Z</time>
      </trkpt>
      <trkpt lat="44.06449" lon="5.78799">
        <ele>899</ele>
        <time>2011-07-09T14:49:16Z</time>
      </trkpt>
      <trkpt lat="44.06409" lon="5.78789">
        <ele>889.5</ele>
        <time>2011-07-09T14:49:21Z</time>
      </trkpt>
      <trkpt lat="44.06345" lon="5.78806">
        <ele>884.2</ele>
        <time>2011-07-09T14:49:26Z</time>
      </trkpt>
      <trkpt lat="44.06287" lon="5.78802">
        <ele>884.4</ele>
        <time>2011-07-09T14:49:31Z</time>
      </trkpt>
      <trkpt lat="44.06258" lon="5.78744">
        <ele>883.6</ele>
        <time>2011-07-09T14:49:36Z</time>
      </trkpt>
      <trkpt lat="44.06235" lon="5.78676">
        <ele>883.2</ele>
        <time>2011-07-09T14:49:41.002Z</time>
      </trkpt>
      <trkpt lat="44.06205" lon="5.78613">
        <ele>880.5</ele>
        <time>2011-07-09T14:49:46Z</time>
      </trkpt>
      <trkpt lat="44.06161" lon="5.78558">
        <ele>877.2</ele>
        <time>2011-07-09T14:49:50.997Z</time>
      </trkpt>
      <trkpt lat="44.06117" lon="5.78501">
        <ele>872</ele>
        <time>2011-07-09T14:49:56Z</time>
      </trkpt>
      <trkpt lat="44.06071" lon="5.78442">
        <ele>865.6</ele>
        <time>2011-07-09T14:50:01Z</time>
      </trkpt>
      <trkpt lat="44.06031" lon="5.78386">
        <ele>859.3</ele>
        <time>2011-07-09T14:50:06.000Z</time>
      </trkpt>
      <trkpt lat="44.06001" lon="5.78342">
        <ele>854.8</ele>
        <time>2011-07-09T14:50:11Z</time>
      </trkpt>
      <trkpt lat="44.05988" lon="5.7838">
        <ele>860.6</ele>
        <time>2011-07-09T14:50:16Z</time>
      </trkpt>
      <trkpt lat="44.05995" lon="5.78446">
        <ele>864.5</ele>
        <time>2011-07-09T14:50:21Z</time>
      </trkpt>
      <trkpt lat="44.06003" lon="5.78518">
        <ele>866.1</ele>
        <time>2011-07-09T14:50:25.997Z</time>
      </trkpt>
      <trkpt lat="44.06009" lon="5.7859">
        <ele>866.5</ele>
        <time>2011-07-09T14:50:31Z</time>
      </trkpt>
      <trkpt lat="44.06" lon="5.78649">
        <ele>866.6</ele>
        <time>2011-07-09T14:50:36Z</time>
      </trkpt>
      <trkpt lat="44.05958" lon="5.78682">
        <ele>865.9</ele>
        <time>2011-07-09T14:50:41Z</time>
      </trkpt>
      <trkpt lat="44.05897" lon="5.78713">
        <ele>862.1</ele>
        <time>2011-07-09T14:50:46Z</time>
      </trkpt>
      <trkpt lat="44.05855" lon="5.78757">
        <ele>856.2</ele>
        <time>2011-07-09T14:50:51Z</time>
      </trkpt>
      <trkpt lat="44.05818" lon="5.78797">
        <ele>849.8</ele>
        <time>2011-07-09T14:50:56Z</time>
      </trkpt>
      <trkpt lat="44.05769" lon="5.78835">
        <ele>844</ele>
        <time>2011-07-09T14:51:01Z</time>
      </trkpt>
      <trkpt lat="44.0573" lon="5.78887">
        <ele>838.5</ele>
        <time>2011-07-09T14:51:06Z</time>
      </trkpt>
      <trkpt lat="44.05697" lon="5.78901">
        <ele>834.5</ele>
        <time>2011-07-09T14:51:10.997Z</time>
      </trkpt>
      <trkpt lat="44.05672" lon="5.78871">
        <ele>829.6</ele>
        <time>2011-07-09T14:51:16Z</time>
      </trkpt>
      <trkpt lat="44.05666" lon="5.78804">
        <ele>823.4</ele>
        <time>2011-07-09T14:51:21Z</time>
      </trkpt>
      <trkpt lat="44.05658" lon="5.78729">
        <ele>817.3</ele>
        <time>2011-07-09T14:51:26Z</time>
      </trkpt>
      <trkpt lat="44.05643" lon="5.78649">
        <ele>816.4</ele>
        <time>2011-07-09T14:51:31Z</time>
      </trkpt>
      <trkpt lat="44.05617" lon="5.7857">
        <ele>816.3</ele>
        <time>2011-07-09T14:51:36Z</time>
      </trkpt>
      <trkpt lat="44.05573" lon="5.785">
        <ele>814.6</ele>
        <time>2011-07-09T14:51:41Z</time>
      </trkpt>
      <trkpt lat="44.05543" lon="5.78437">
        <ele>811.3</ele>
        <time>2011-07-09T14:51:46Z</time>
      </trkpt>
      <trkpt lat="44.05551" lon="5.78364">
        <ele>804.6</ele>
        <time>2011-07-09T14:51:51Z</time>
      </trkpt>
      <trkpt lat="44.05553" lon="5.783">
        <ele>796.8</ele>
        <time>2011-07-09T14:51:56Z</time>
      </trkpt>
      <trkpt lat="44.05521" lon="5.78272">
        <ele>791.9</ele>
        <time>2011-07-09T14:52:01Z</time>
      </trkpt>
      <trkpt lat="44.05473" lon="5.78255">
        <ele>789.5</ele>
        <time>2011-07-09T14:52:06Z</time>
      </trkpt>
      <trkpt lat="44.05418" lon="5.78228">
        <ele>787.5</ele>
        <time>2011-07-09T14:52:11Z</time>
      </trkpt>
      <trkpt lat="44.05367" lon="5.78181">
        <ele>784.5</ele>
        <time>2011-07-09T14:52:15.997Z</time>
      </trkpt>
      <trkpt lat="44.05319" lon="5.78129">
        <ele>781.7</ele>
        <time>2011-07-09T14:52:21.000Z</time>
      </trkpt>
      <trkpt lat="44.05284" lon="5.7807">
        <ele>778.3</ele>
        <time>2011-07-09T14:52:26Z</time>
      </trkpt>
      <trkpt lat="44.05238" lon="5.7803">
        <ele>774.4</ele>
        <time>2011-07-09T14:52:31Z</time>
      </trkpt>
      <trkpt lat="44.05178" lon="5.77996">
        <ele>770.3</ele>
        <time>2011-07-09T14:52:36Z</time>
      </trkpt>
      <trkpt lat="44.05125" lon="5.77948">
        <ele>767</ele>
        <time>2011-07-09T14:52:41Z</time>
      </trkpt>
      <trkpt lat="44.0509" lon="5.77897">
        <ele>762.3</ele>
        <time>2011-07-09T14:52:46Z</time>
      </trkpt>
      <trkpt lat="44.05068" lon="5.7788">
        <ele>756.3</ele>
        <time>2011-07-09T14:52:51Z</time>
      </trkpt>
      <trkpt lat="44.05057" lon="5.77925">
        <ele>754.8</ele>
        <time>2011-07-09T14:52:56Z</time>
      </trkpt>
      <trkpt lat="44.05051" lon="5.77983">
        <ele>754.3</ele>
        <time>2011-07-09T14:53:01Z</time>
      </trkpt>
      <trkpt lat="44.05042" lon="5.78057">
        <ele>750.9</ele>
        <time>2011-07-09T14:53:06Z</time>
      </trkpt>
      <trkpt lat="44.05033" lon="5.78135">
        <ele>746.9</ele>
        <time>2011-07-09T14:53:11Z</time>
      </trkpt>
      <trkpt lat="44.05023" lon="5.78188">
        <ele>744.3</ele>
        <time>2011-07-09T14:53:16Z</time>
      </trkpt>
      <trkpt lat="44.04977" lon="5.78194">
        <ele>743.5</ele>
        <time>2011-07-09T14:53:21Z</time>
      </trkpt>
      <trkpt lat="44.04926" lon="5.78175">
        <ele>741.3</ele>
        <time>2011-07-09T14:53:26Z</time>
      </trkpt>
      <trkpt lat="44.04893" lon="5.78157">
        <ele>736.9</ele>
        <time>2011-07-09T14:53:31.002Z</time>
      </trkpt>
      <trkpt lat="44.04864" lon="5.78151">
        <ele>731</ele>
        <time>2011-07-09T14:53:36Z</time>
      </trkpt>
      <trkpt lat="44.0483" lon="5.78139">
        <ele>723.9</ele>
        <time>2011-07-09T14:53:41Z</time>
      </trkpt>
      <trkpt lat="44.04784" lon="5.7812">
        <ele>717.7</ele>
        <time>2011-07-09T14:53:46Z</time>
      </trkpt>
      <trkpt lat="44.04733" lon="5.78101">
        <ele>712.9</ele>
        <time>2011-07-09T14:53:51Z</time>
      </trkpt>
      <trkpt lat="44.04669" lon="5.78073">
        <ele>705.3</ele>
        <time>2011-07-09T14:54:01Z</time>
      </trkpt>
      <trkpt lat="44.04648" lon="5.78054">
        <ele>703.3</ele>
        <time>2011-07-09T14:54:06Z</time>
      </trkpt>
      <trkpt lat="44.04623" lon="5.78035">
        <ele>706.3</ele>
        <time>2011-07-09T14:54:16Z</time>
      </trkpt>
      <trkpt lat="44.04579" lon="5.7801">
        <ele>717.1</ele>
        <time>2011-07-09T14:55:16Z</time>
      </trkpt>
      <trkpt lat="44.04561" lon="5.78">
        <ele>712.4</ele>
        <time>2011-07-09T14:55:21Z</time>
      </trkpt>
      <trkpt lat="44.04537" lon="5.78004">
        <ele>702.4</ele>
        <time>2011-07-09T14:55:36Z</time>
      </trkpt>
      <trkpt lat="44.04518" lon="5.78013">
        <ele>704.1</ele>
        <time>2011-07-09T14:55:41Z</time>
      </trkpt>
      <trkpt lat="44.04477" lon="5.78023">
        <ele>709</ele>
        <time>2011-07-09T14:55:51Z</time>
      </trkpt>
      <trkpt lat="44.04459" lon="5.78033">
        <ele>707.2</ele>
        <time>2011-07-09T14:55:56Z</time>
      </trkpt>
      <trkpt lat="44.04436" lon="5.78046">
        <ele>702.6</ele>
        <time>2011-07-09T14:56:01Z</time>
      </trkpt>
      <trkpt lat="44.04406" lon="5.78058">
        <ele>696</ele>
        <time>2011-07-09T14:56:06Z</time>
      </trkpt>
      <trkpt lat="44.0437" lon="5.78074">
        <ele>689.5</ele>
        <time>2011-07-09T14:56:11Z</time>
      </trkpt>
      <trkpt lat="44.04343" lon="5.78092">
        <ele>683.7</ele>
        <time>2011-07-09T14:56:16Z</time>
      </trkpt>
      <trkpt lat="44.04323" lon="5.78116">
        <ele>680.1</ele>
        <time>2011-07-09T14:56:21Z</time>
      </trkpt>
      <trkpt lat="44.04311" lon="5.78135">
        <ele>678.2</ele>
        <time>2011-07-09T14:56:25.997Z</time>
      </trkpt>
      <trkpt lat="44.04301" lon="5.78145">
        <ele>676.4</ele>
        <time>2011-07-09T14:56:31.002Z</time>
      </trkpt>
    </trkseg>
  </trk>
</gpx>